<?xml version="1.0" encoding="UTF-8" standalone="no" ?>
<gpx xmlns="http://www.topografix.com/GPX/1/1" xmlns:xsi="http://www.w3.org/2001/XMLSchema-instance" xsi:schemaLocation="http://www.topografix.com/GPX/1/1 http://www.topografix.com/GPX/1/1/gpx.xsd" version="1.1" creator="VisuGPX - https://www.visugpx.com">
  <metadata>
    <name>Autour de Riverie</name>
    <desc><![CDATA[2015-03-08
Ballade sympa sans grosse difficulté à aprt un raidillon au km 4]]></desc>
  </metadata>
  <trk>
    <name><![CDATA[Autour de Riverie_1]]></name>
    <trkseg>
      <trkpt lat="45.6009" lon="4.58798">
        <ele>713.3</ele>
        <time>2015-03-08T13:20:33Z</time>
      </trkpt>
      <trkpt lat="45.60088" lon="4.58796">
        <ele>720.2</ele>
        <time>2015-03-08T13:20:50Z</time>
      </trkpt>
      <trkpt lat="45.60085" lon="4.58802">
        <ele>723.4</ele>
        <time>2015-03-08T13:20:56Z</time>
      </trkpt>
      <trkpt lat="45.60086" lon="4.58818">
        <ele>753.9</ele>
        <time>2015-03-08T13:21:13Z</time>
      </trkpt>
      <trkpt lat="45.60078" lon="4.58836">
        <ele>743.1</ele>
        <time>2015-03-08T13:21:24Z</time>
      </trkpt>
      <trkpt lat="45.60073" lon="4.58853">
        <ele>738.1</ele>
        <time>2015-03-08T13:21:36Z</time>
      </trkpt>
      <trkpt lat="45.60073" lon="4.58858">
        <ele>737.4</ele>
        <time>2015-03-08T13:21:39Z</time>
      </trkpt>
      <trkpt lat="45.60075" lon="4.58866">
        <ele>733.9</ele>
        <time>2015-03-08T13:21:43Z</time>
      </trkpt>
      <trkpt lat="45.60073" lon="4.58869">
        <ele>731.1</ele>
        <time>2015-03-08T13:21:47Z</time>
      </trkpt>
      <trkpt lat="45.60076" lon="4.58868">
        <ele>730.9</ele>
        <time>2015-03-08T13:21:55Z</time>
      </trkpt>
      <trkpt lat="45.60084" lon="4.58873">
        <ele>728.5</ele>
        <time>2015-03-08T13:22:02Z</time>
      </trkpt>
      <trkpt lat="45.60086" lon="4.58873">
        <ele>728</ele>
        <time>2015-03-08T13:22:04Z</time>
      </trkpt>
      <trkpt lat="45.60092" lon="4.58878">
        <ele>729.1</ele>
        <time>2015-03-08T13:22:10Z</time>
      </trkpt>
      <trkpt lat="45.60096" lon="4.58877">
        <ele>734.1</ele>
        <time>2015-03-08T13:22:13Z</time>
      </trkpt>
      <trkpt lat="45.60101" lon="4.58882">
        <ele>736.7</ele>
        <time>2015-03-08T13:22:18Z</time>
      </trkpt>
      <trkpt lat="45.60106" lon="4.58885">
        <ele>740</ele>
        <time>2015-03-08T13:22:22Z</time>
      </trkpt>
      <trkpt lat="45.6011" lon="4.5889">
        <ele>741.3</ele>
        <time>2015-03-08T13:22:26Z</time>
      </trkpt>
      <trkpt lat="45.60111" lon="4.58889">
        <ele>734.9</ele>
        <time>2015-03-08T13:22:28Z</time>
      </trkpt>
      <trkpt lat="45.60112" lon="4.58898">
        <ele>730.9</ele>
        <time>2015-03-08T13:22:33Z</time>
      </trkpt>
      <trkpt lat="45.60109" lon="4.589">
        <ele>727</ele>
        <time>2015-03-08T13:22:38Z</time>
      </trkpt>
      <trkpt lat="45.60109" lon="4.5891">
        <ele>731.1</ele>
        <time>2015-03-08T13:22:43Z</time>
      </trkpt>
      <trkpt lat="45.60112" lon="4.58923">
        <ele>726.2</ele>
        <time>2015-03-08T13:22:48Z</time>
      </trkpt>
      <trkpt lat="45.60128" lon="4.58924">
        <ele>727.5</ele>
        <time>2015-03-08T13:23:04Z</time>
      </trkpt>
      <trkpt lat="45.60131" lon="4.58929">
        <ele>726.5</ele>
        <time>2015-03-08T13:23:09Z</time>
      </trkpt>
      <trkpt lat="45.6013" lon="4.58945">
        <ele>722.7</ele>
        <time>2015-03-08T13:23:18Z</time>
      </trkpt>
      <trkpt lat="45.6012" lon="4.58964">
        <ele>720.9</ele>
        <time>2015-03-08T13:23:32Z</time>
      </trkpt>
      <trkpt lat="45.60121" lon="4.58973">
        <ele>723.3</ele>
        <time>2015-03-08T13:23:37Z</time>
      </trkpt>
      <trkpt lat="45.60124" lon="4.5898">
        <ele>722.1</ele>
        <time>2015-03-08T13:23:50Z</time>
      </trkpt>
      <trkpt lat="45.60122" lon="4.58984">
        <ele>722.8</ele>
        <time>2015-03-08T13:23:52Z</time>
      </trkpt>
      <trkpt lat="45.60123" lon="4.58989">
        <ele>723.2</ele>
        <time>2015-03-08T13:23:55Z</time>
      </trkpt>
      <trkpt lat="45.6012" lon="4.58994">
        <ele>723.1</ele>
        <time>2015-03-08T13:23:59Z</time>
      </trkpt>
      <trkpt lat="45.60119" lon="4.59">
        <ele>723.7</ele>
        <time>2015-03-08T13:24:03Z</time>
      </trkpt>
      <trkpt lat="45.60111" lon="4.59007">
        <ele>726.5</ele>
        <time>2015-03-08T13:24:08Z</time>
      </trkpt>
      <trkpt lat="45.60102" lon="4.59008">
        <ele>728.6</ele>
        <time>2015-03-08T13:24:13Z</time>
      </trkpt>
      <trkpt lat="45.60096" lon="4.59011">
        <ele>727.9</ele>
        <time>2015-03-08T13:24:17Z</time>
      </trkpt>
      <trkpt lat="45.60086" lon="4.59013">
        <ele>727</ele>
        <time>2015-03-08T13:24:25Z</time>
      </trkpt>
      <trkpt lat="45.60073" lon="4.5903">
        <ele>722</ele>
        <time>2015-03-08T13:24:38Z</time>
      </trkpt>
      <trkpt lat="45.60068" lon="4.59033">
        <ele>721.2</ele>
        <time>2015-03-08T13:24:42Z</time>
      </trkpt>
      <trkpt lat="45.60064" lon="4.59036">
        <ele>715.4</ele>
        <time>2015-03-08T13:24:56Z</time>
      </trkpt>
      <trkpt lat="45.60077" lon="4.59023">
        <ele>711</ele>
        <time>2015-03-08T13:25:11Z</time>
      </trkpt>
      <trkpt lat="45.60097" lon="4.58995">
        <ele>717</ele>
        <time>2015-03-08T13:25:33Z</time>
      </trkpt>
      <trkpt lat="45.60102" lon="4.58994">
        <ele>718</ele>
        <time>2015-03-08T13:25:37Z</time>
      </trkpt>
      <trkpt lat="45.60103" lon="4.58991">
        <ele>718.8</ele>
        <time>2015-03-08T13:25:39Z</time>
      </trkpt>
      <trkpt lat="45.60113" lon="4.5898">
        <ele>715.6</ele>
        <time>2015-03-08T13:25:53Z</time>
      </trkpt>
      <trkpt lat="45.60116" lon="4.58984">
        <ele>713.7</ele>
        <time>2015-03-08T13:25:58Z</time>
      </trkpt>
      <trkpt lat="45.60118" lon="4.58992">
        <ele>711.2</ele>
        <time>2015-03-08T13:26:05Z</time>
      </trkpt>
      <trkpt lat="45.60118" lon="4.58997">
        <ele>709.5</ele>
        <time>2015-03-08T13:26:10Z</time>
      </trkpt>
      <trkpt lat="45.60126" lon="4.59009">
        <ele>711.7</ele>
        <time>2015-03-08T13:26:21Z</time>
      </trkpt>
      <trkpt lat="45.60127" lon="4.59015">
        <ele>715.8</ele>
        <time>2015-03-08T13:26:27Z</time>
      </trkpt>
      <trkpt lat="45.60124" lon="4.59021">
        <ele>715.8</ele>
        <time>2015-03-08T13:26:32Z</time>
      </trkpt>
      <trkpt lat="45.60125" lon="4.59033">
        <ele>710</ele>
        <time>2015-03-08T13:26:43Z</time>
      </trkpt>
      <trkpt lat="45.60121" lon="4.59051">
        <ele>697</ele>
        <time>2015-03-08T13:27:06Z</time>
      </trkpt>
      <trkpt lat="45.60119" lon="4.59055">
        <ele>696.3</ele>
        <time>2015-03-08T13:27:08Z</time>
      </trkpt>
      <trkpt lat="45.60121" lon="4.59061">
        <ele>693</ele>
        <time>2015-03-08T13:27:14Z</time>
      </trkpt>
      <trkpt lat="45.60116" lon="4.59073">
        <ele>690.3</ele>
        <time>2015-03-08T13:27:23Z</time>
      </trkpt>
      <trkpt lat="45.60115" lon="4.59079">
        <ele>686.7</ele>
        <time>2015-03-08T13:27:29Z</time>
      </trkpt>
      <trkpt lat="45.60117" lon="4.59083">
        <ele>684.6</ele>
        <time>2015-03-08T13:27:34Z</time>
      </trkpt>
      <trkpt lat="45.60117" lon="4.59093">
        <ele>683.2</ele>
        <time>2015-03-08T13:27:44Z</time>
      </trkpt>
      <trkpt lat="45.60114" lon="4.59098">
        <ele>681.8</ele>
        <time>2015-03-08T13:27:49Z</time>
      </trkpt>
      <trkpt lat="45.60114" lon="4.59107">
        <ele>684.8</ele>
        <time>2015-03-08T13:28:01Z</time>
      </trkpt>
      <trkpt lat="45.6011" lon="4.59122">
        <ele>684.2</ele>
        <time>2015-03-08T13:28:15Z</time>
      </trkpt>
      <trkpt lat="45.6011" lon="4.5913">
        <ele>683.7</ele>
        <time>2015-03-08T13:28:23Z</time>
      </trkpt>
      <trkpt lat="45.60107" lon="4.59138">
        <ele>681.7</ele>
        <time>2015-03-08T13:28:32Z</time>
      </trkpt>
      <trkpt lat="45.60107" lon="4.59148">
        <ele>687.5</ele>
        <time>2015-03-08T13:28:42Z</time>
      </trkpt>
      <trkpt lat="45.60112" lon="4.59156">
        <ele>687.4</ele>
        <time>2015-03-08T13:28:50Z</time>
      </trkpt>
      <trkpt lat="45.60111" lon="4.59164">
        <ele>689.8</ele>
        <time>2015-03-08T13:28:57Z</time>
      </trkpt>
      <trkpt lat="45.60109" lon="4.59167">
        <ele>689.7</ele>
        <time>2015-03-08T13:28:59Z</time>
      </trkpt>
      <trkpt lat="45.6011" lon="4.59173">
        <ele>689.8</ele>
        <time>2015-03-08T13:29:03Z</time>
      </trkpt>
      <trkpt lat="45.60103" lon="4.59189">
        <ele>686.1</ele>
        <time>2015-03-08T13:29:16Z</time>
      </trkpt>
      <trkpt lat="45.60104" lon="4.59194">
        <ele>685.3</ele>
        <time>2015-03-08T13:29:20Z</time>
      </trkpt>
      <trkpt lat="45.60101" lon="4.592">
        <ele>683.9</ele>
        <time>2015-03-08T13:29:25Z</time>
      </trkpt>
      <trkpt lat="45.60103" lon="4.59207">
        <ele>683.3</ele>
        <time>2015-03-08T13:29:29Z</time>
      </trkpt>
      <trkpt lat="45.60104" lon="4.59214">
        <ele>680.7</ele>
        <time>2015-03-08T13:29:34Z</time>
      </trkpt>
      <trkpt lat="45.60101" lon="4.59225">
        <ele>676.5</ele>
        <time>2015-03-08T13:29:42Z</time>
      </trkpt>
      <trkpt lat="45.60102" lon="4.59231">
        <ele>675.6</ele>
        <time>2015-03-08T13:29:47Z</time>
      </trkpt>
      <trkpt lat="45.60095" lon="4.59258">
        <ele>673.3</ele>
        <time>2015-03-08T13:30:07Z</time>
      </trkpt>
      <trkpt lat="45.60096" lon="4.59266">
        <ele>674.2</ele>
        <time>2015-03-08T13:30:11Z</time>
      </trkpt>
      <trkpt lat="45.60091" lon="4.59277">
        <ele>672.4</ele>
        <time>2015-03-08T13:30:20Z</time>
      </trkpt>
      <trkpt lat="45.60086" lon="4.59301">
        <ele>668.3</ele>
        <time>2015-03-08T13:30:40Z</time>
      </trkpt>
      <trkpt lat="45.60086" lon="4.59313">
        <ele>667.1</ele>
        <time>2015-03-08T13:30:49Z</time>
      </trkpt>
      <trkpt lat="45.60084" lon="4.59315">
        <ele>665.7</ele>
        <time>2015-03-08T13:31:15Z</time>
      </trkpt>
      <trkpt lat="45.60084" lon="4.59321">
        <ele>664.5</ele>
        <time>2015-03-08T13:31:21Z</time>
      </trkpt>
      <trkpt lat="45.6008" lon="4.59339">
        <ele>653.6</ele>
        <time>2015-03-08T13:31:37Z</time>
      </trkpt>
      <trkpt lat="45.6008" lon="4.59351">
        <ele>654.1</ele>
        <time>2015-03-08T13:31:47Z</time>
      </trkpt>
      <trkpt lat="45.60078" lon="4.59356">
        <ele>650.3</ele>
        <time>2015-03-08T13:31:51Z</time>
      </trkpt>
      <trkpt lat="45.6008" lon="4.59374">
        <ele>650</ele>
        <time>2015-03-08T13:32:06Z</time>
      </trkpt>
      <trkpt lat="45.60079" lon="4.59385">
        <ele>650.2</ele>
        <time>2015-03-08T13:32:15Z</time>
      </trkpt>
      <trkpt lat="45.60081" lon="4.59389">
        <ele>652.2</ele>
        <time>2015-03-08T13:32:19Z</time>
      </trkpt>
      <trkpt lat="45.6008" lon="4.59403">
        <ele>653.5</ele>
        <time>2015-03-08T13:32:31Z</time>
      </trkpt>
      <trkpt lat="45.60082" lon="4.59408">
        <ele>653.1</ele>
        <time>2015-03-08T13:32:40Z</time>
      </trkpt>
      <trkpt lat="45.60081" lon="4.59415">
        <ele>652.2</ele>
        <time>2015-03-08T13:32:45Z</time>
      </trkpt>
      <trkpt lat="45.60087" lon="4.59417">
        <ele>657.2</ele>
        <time>2015-03-08T13:32:51Z</time>
      </trkpt>
      <trkpt lat="45.60087" lon="4.59421">
        <ele>656.7</ele>
        <time>2015-03-08T13:32:55Z</time>
      </trkpt>
      <trkpt lat="45.60082" lon="4.59431">
        <ele>650.9</ele>
        <time>2015-03-08T13:33:04Z</time>
      </trkpt>
      <trkpt lat="45.60079" lon="4.5944">
        <ele>650.7</ele>
        <time>2015-03-08T13:33:11Z</time>
      </trkpt>
      <trkpt lat="45.60078" lon="4.59451">
        <ele>646</ele>
        <time>2015-03-08T13:33:20Z</time>
      </trkpt>
      <trkpt lat="45.60079" lon="4.59455">
        <ele>647</ele>
        <time>2015-03-08T13:33:24Z</time>
      </trkpt>
      <trkpt lat="45.60076" lon="4.59467">
        <ele>645.8</ele>
        <time>2015-03-08T13:33:34Z</time>
      </trkpt>
      <trkpt lat="45.60077" lon="4.59469">
        <ele>644.7</ele>
        <time>2015-03-08T13:33:37Z</time>
      </trkpt>
      <trkpt lat="45.60073" lon="4.59476">
        <ele>642.8</ele>
        <time>2015-03-08T13:33:44Z</time>
      </trkpt>
      <trkpt lat="45.60072" lon="4.59479">
        <ele>642.8</ele>
        <time>2015-03-08T13:33:46Z</time>
      </trkpt>
      <trkpt lat="45.60076" lon="4.59487">
        <ele>638.5</ele>
        <time>2015-03-08T13:33:53Z</time>
      </trkpt>
      <trkpt lat="45.60074" lon="4.59494">
        <ele>638.2</ele>
        <time>2015-03-08T13:33:56Z</time>
      </trkpt>
      <trkpt lat="45.60075" lon="4.59501">
        <ele>639.1</ele>
        <time>2015-03-08T13:34:01Z</time>
      </trkpt>
      <trkpt lat="45.60074" lon="4.59534">
        <ele>634.7</ele>
        <time>2015-03-08T13:34:29Z</time>
      </trkpt>
      <trkpt lat="45.60067" lon="4.59539">
        <ele>629.7</ele>
        <time>2015-03-08T13:34:35Z</time>
      </trkpt>
      <trkpt lat="45.60065" lon="4.59564">
        <ele>631.3</ele>
        <time>2015-03-08T13:34:53Z</time>
      </trkpt>
      <trkpt lat="45.60066" lon="4.5958">
        <ele>634</ele>
        <time>2015-03-08T13:35:04Z</time>
      </trkpt>
      <trkpt lat="45.60063" lon="4.59589">
        <ele>632.7</ele>
        <time>2015-03-08T13:35:12Z</time>
      </trkpt>
      <trkpt lat="45.60063" lon="4.59601">
        <ele>630.6</ele>
        <time>2015-03-08T13:35:21Z</time>
      </trkpt>
      <trkpt lat="45.60065" lon="4.59618">
        <ele>626.1</ele>
        <time>2015-03-08T13:35:34Z</time>
      </trkpt>
      <trkpt lat="45.60064" lon="4.59636">
        <ele>624.2</ele>
        <time>2015-03-08T13:35:48Z</time>
      </trkpt>
      <trkpt lat="45.60056" lon="4.59657">
        <ele>622.8</ele>
        <time>2015-03-08T13:36:07Z</time>
      </trkpt>
      <trkpt lat="45.60056" lon="4.59673">
        <ele>617.8</ele>
        <time>2015-03-08T13:36:24Z</time>
      </trkpt>
      <trkpt lat="45.60058" lon="4.59678">
        <ele>619.7</ele>
        <time>2015-03-08T13:36:28Z</time>
      </trkpt>
      <trkpt lat="45.60054" lon="4.59681">
        <ele>618.5</ele>
        <time>2015-03-08T13:36:31Z</time>
      </trkpt>
      <trkpt lat="45.60056" lon="4.59705">
        <ele>613.4</ele>
        <time>2015-03-08T13:36:51Z</time>
      </trkpt>
      <trkpt lat="45.60058" lon="4.59717">
        <ele>611.8</ele>
        <time>2015-03-08T13:37:01Z</time>
      </trkpt>
      <trkpt lat="45.60063" lon="4.59724">
        <ele>610.9</ele>
        <time>2015-03-08T13:37:08Z</time>
      </trkpt>
      <trkpt lat="45.60063" lon="4.5973">
        <ele>608.5</ele>
        <time>2015-03-08T13:37:14Z</time>
      </trkpt>
      <trkpt lat="45.6007" lon="4.59737">
        <ele>611.1</ele>
        <time>2015-03-08T13:37:19Z</time>
      </trkpt>
      <trkpt lat="45.60075" lon="4.59749">
        <ele>610.2</ele>
        <time>2015-03-08T13:37:30Z</time>
      </trkpt>
      <trkpt lat="45.60082" lon="4.59758">
        <ele>612.5</ele>
        <time>2015-03-08T13:37:40Z</time>
      </trkpt>
      <trkpt lat="45.6008" lon="4.59762">
        <ele>610.5</ele>
        <time>2015-03-08T13:37:43Z</time>
      </trkpt>
      <trkpt lat="45.60082" lon="4.59769">
        <ele>607.4</ele>
        <time>2015-03-08T13:37:49Z</time>
      </trkpt>
      <trkpt lat="45.60081" lon="4.59779">
        <ele>604</ele>
        <time>2015-03-08T13:37:59Z</time>
      </trkpt>
      <trkpt lat="45.60082" lon="4.59789">
        <ele>603.4</ele>
        <time>2015-03-08T13:38:07Z</time>
      </trkpt>
      <trkpt lat="45.60092" lon="4.59809">
        <ele>604.6</ele>
        <time>2015-03-08T13:38:23Z</time>
      </trkpt>
      <trkpt lat="45.60091" lon="4.59816">
        <ele>600.2</ele>
        <time>2015-03-08T13:38:29Z</time>
      </trkpt>
      <trkpt lat="45.60094" lon="4.59822">
        <ele>599.8</ele>
        <time>2015-03-08T13:38:34Z</time>
      </trkpt>
      <trkpt lat="45.60095" lon="4.59827">
        <ele>599.6</ele>
        <time>2015-03-08T13:38:38Z</time>
      </trkpt>
      <trkpt lat="45.60095" lon="4.59831">
        <ele>599.2</ele>
        <time>2015-03-08T13:38:42Z</time>
      </trkpt>
      <trkpt lat="45.60094" lon="4.59831">
        <ele>600</ele>
        <time>2015-03-08T13:38:46Z</time>
      </trkpt>
      <trkpt lat="45.60083" lon="4.59827">
        <ele>604</ele>
        <time>2015-03-08T13:39:01Z</time>
      </trkpt>
      <trkpt lat="45.60077" lon="4.5983">
        <ele>606.2</ele>
        <time>2015-03-08T13:39:07Z</time>
      </trkpt>
      <trkpt lat="45.60076" lon="4.59834">
        <ele>605.7</ele>
        <time>2015-03-08T13:39:13Z</time>
      </trkpt>
      <trkpt lat="45.60075" lon="4.59834">
        <ele>606.5</ele>
        <time>2015-03-08T13:39:15Z</time>
      </trkpt>
      <trkpt lat="45.60067" lon="4.59825">
        <ele>607.3</ele>
        <time>2015-03-08T13:39:27Z</time>
      </trkpt>
      <trkpt lat="45.60055" lon="4.59816">
        <ele>602</ele>
        <time>2015-03-08T13:39:39Z</time>
      </trkpt>
      <trkpt lat="45.60049" lon="4.59808">
        <ele>602</ele>
        <time>2015-03-08T13:39:46Z</time>
      </trkpt>
      <trkpt lat="45.60048" lon="4.59802">
        <ele>599.6</ele>
        <time>2015-03-08T13:39:50Z</time>
      </trkpt>
      <trkpt lat="45.6005" lon="4.59798">
        <ele>603</ele>
        <time>2015-03-08T13:39:54Z</time>
      </trkpt>
      <trkpt lat="45.6005" lon="4.59794">
        <ele>603.1</ele>
        <time>2015-03-08T13:39:57Z</time>
      </trkpt>
      <trkpt lat="45.60043" lon="4.59788">
        <ele>601</ele>
        <time>2015-03-08T13:40:02Z</time>
      </trkpt>
      <trkpt lat="45.60035" lon="4.59772">
        <ele>595.1</ele>
        <time>2015-03-08T13:40:14Z</time>
      </trkpt>
      <trkpt lat="45.60029" lon="4.59766">
        <ele>596.7</ele>
        <time>2015-03-08T13:40:20Z</time>
      </trkpt>
      <trkpt lat="45.60026" lon="4.59759">
        <ele>601.2</ele>
        <time>2015-03-08T13:40:28Z</time>
      </trkpt>
      <trkpt lat="45.60014" lon="4.59747">
        <ele>603.3</ele>
        <time>2015-03-08T13:40:40Z</time>
      </trkpt>
      <trkpt lat="45.60009" lon="4.59742">
        <ele>605.6</ele>
        <time>2015-03-08T13:40:46Z</time>
      </trkpt>
      <trkpt lat="45.60004" lon="4.59741">
        <ele>605.3</ele>
        <time>2015-03-08T13:40:49Z</time>
      </trkpt>
      <trkpt lat="45.60001" lon="4.59734">
        <ele>604</ele>
        <time>2015-03-08T13:40:55Z</time>
      </trkpt>
      <trkpt lat="45.59999" lon="4.59726">
        <ele>602.5</ele>
        <time>2015-03-08T13:41:01Z</time>
      </trkpt>
      <trkpt lat="45.5999" lon="4.59716">
        <ele>604.6</ele>
        <time>2015-03-08T13:41:16Z</time>
      </trkpt>
      <trkpt lat="45.59988" lon="4.59711">
        <ele>603.4</ele>
        <time>2015-03-08T13:41:20Z</time>
      </trkpt>
      <trkpt lat="45.59985" lon="4.5971">
        <ele>604.9</ele>
        <time>2015-03-08T13:41:23Z</time>
      </trkpt>
      <trkpt lat="45.59981" lon="4.59705">
        <ele>606.6</ele>
        <time>2015-03-08T13:41:28Z</time>
      </trkpt>
      <trkpt lat="45.59979" lon="4.5969">
        <ele>605.2</ele>
        <time>2015-03-08T13:41:38Z</time>
      </trkpt>
      <trkpt lat="45.59976" lon="4.59685">
        <ele>604.7</ele>
        <time>2015-03-08T13:41:42Z</time>
      </trkpt>
      <trkpt lat="45.59976" lon="4.59671">
        <ele>603.9</ele>
        <time>2015-03-08T13:41:51Z</time>
      </trkpt>
      <trkpt lat="45.59969" lon="4.59658">
        <ele>604.6</ele>
        <time>2015-03-08T13:42:02Z</time>
      </trkpt>
      <trkpt lat="45.59964" lon="4.59652">
        <ele>605.3</ele>
        <time>2015-03-08T13:42:08Z</time>
      </trkpt>
      <trkpt lat="45.59962" lon="4.5964">
        <ele>598.3</ele>
        <time>2015-03-08T13:42:17Z</time>
      </trkpt>
      <trkpt lat="45.59956" lon="4.59641">
        <ele>584.8</ele>
        <time>2015-03-08T13:42:54Z</time>
      </trkpt>
      <trkpt lat="45.59952" lon="4.59639">
        <ele>585.4</ele>
        <time>2015-03-08T13:42:57Z</time>
      </trkpt>
      <trkpt lat="45.59952" lon="4.59634">
        <ele>588.2</ele>
        <time>2015-03-08T13:43:00Z</time>
      </trkpt>
      <trkpt lat="45.59949" lon="4.59634">
        <ele>589.7</ele>
        <time>2015-03-08T13:43:02Z</time>
      </trkpt>
      <trkpt lat="45.59947" lon="4.59631">
        <ele>589.2</ele>
        <time>2015-03-08T13:43:05Z</time>
      </trkpt>
      <trkpt lat="45.5995" lon="4.59631">
        <ele>596.8</ele>
        <time>2015-03-08T13:43:11Z</time>
      </trkpt>
      <trkpt lat="45.59944" lon="4.59626">
        <ele>598.8</ele>
        <time>2015-03-08T13:43:17Z</time>
      </trkpt>
      <trkpt lat="45.59939" lon="4.59624">
        <ele>596</ele>
        <time>2015-03-08T13:43:21Z</time>
      </trkpt>
      <trkpt lat="45.59937" lon="4.59615">
        <ele>596.4</ele>
        <time>2015-03-08T13:43:30Z</time>
      </trkpt>
      <trkpt lat="45.59932" lon="4.59611">
        <ele>598.3</ele>
        <time>2015-03-08T13:43:33Z</time>
      </trkpt>
      <trkpt lat="45.5993" lon="4.59607">
        <ele>597.9</ele>
        <time>2015-03-08T13:43:35Z</time>
      </trkpt>
      <trkpt lat="45.59921" lon="4.59601">
        <ele>595.2</ele>
        <time>2015-03-08T13:43:40Z</time>
      </trkpt>
      <trkpt lat="45.59915" lon="4.596">
        <ele>592.8</ele>
        <time>2015-03-08T13:43:46Z</time>
      </trkpt>
      <trkpt lat="45.59909" lon="4.59594">
        <ele>590.4</ele>
        <time>2015-03-08T13:43:53Z</time>
      </trkpt>
      <trkpt lat="45.59904" lon="4.59592">
        <ele>591.6</ele>
        <time>2015-03-08T13:43:57Z</time>
      </trkpt>
      <trkpt lat="45.599" lon="4.59584">
        <ele>590.6</ele>
        <time>2015-03-08T13:44:06Z</time>
      </trkpt>
      <trkpt lat="45.59896" lon="4.59583">
        <ele>588.2</ele>
        <time>2015-03-08T13:44:09Z</time>
      </trkpt>
      <trkpt lat="45.59894" lon="4.5958">
        <ele>587.1</ele>
        <time>2015-03-08T13:44:11Z</time>
      </trkpt>
      <trkpt lat="45.59895" lon="4.59574">
        <ele>593.9</ele>
        <time>2015-03-08T13:44:27Z</time>
      </trkpt>
      <trkpt lat="45.59889" lon="4.59575">
        <ele>590.6</ele>
        <time>2015-03-08T13:44:33Z</time>
      </trkpt>
      <trkpt lat="45.59877" lon="4.59569">
        <ele>590.8</ele>
        <time>2015-03-08T13:44:48Z</time>
      </trkpt>
      <trkpt lat="45.59873" lon="4.59566">
        <ele>595.6</ele>
        <time>2015-03-08T13:44:53Z</time>
      </trkpt>
      <trkpt lat="45.59873" lon="4.59564">
        <ele>599.7</ele>
        <time>2015-03-08T13:44:56Z</time>
      </trkpt>
      <trkpt lat="45.59877" lon="4.59564">
        <ele>606.8</ele>
        <time>2015-03-08T13:45:00Z</time>
      </trkpt>
      <trkpt lat="45.59865" lon="4.59559">
        <ele>600.8</ele>
        <time>2015-03-08T13:45:10Z</time>
      </trkpt>
      <trkpt lat="45.59861" lon="4.59554">
        <ele>604.2</ele>
        <time>2015-03-08T13:45:19Z</time>
      </trkpt>
      <trkpt lat="45.59856" lon="4.59553">
        <ele>603</ele>
        <time>2015-03-08T13:45:24Z</time>
      </trkpt>
      <trkpt lat="45.59844" lon="4.59547">
        <ele>606.9</ele>
        <time>2015-03-08T13:45:41Z</time>
      </trkpt>
      <trkpt lat="45.59836" lon="4.59544">
        <ele>608.4</ele>
        <time>2015-03-08T13:45:47Z</time>
      </trkpt>
      <trkpt lat="45.59831" lon="4.59549">
        <ele>605.3</ele>
        <time>2015-03-08T13:45:53Z</time>
      </trkpt>
      <trkpt lat="45.59832" lon="4.59552">
        <ele>606.1</ele>
        <time>2015-03-08T13:45:55Z</time>
      </trkpt>
      <trkpt lat="45.59837" lon="4.59558">
        <ele>611.8</ele>
        <time>2015-03-08T13:46:02Z</time>
      </trkpt>
      <trkpt lat="45.5983" lon="4.59562">
        <ele>606.5</ele>
        <time>2015-03-08T13:46:08Z</time>
      </trkpt>
      <trkpt lat="45.59825" lon="4.5957">
        <ele>604.5</ele>
        <time>2015-03-08T13:46:16Z</time>
      </trkpt>
      <trkpt lat="45.59826" lon="4.59573">
        <ele>608.6</ele>
        <time>2015-03-08T13:46:19Z</time>
      </trkpt>
      <trkpt lat="45.59825" lon="4.59577">
        <ele>608.7</ele>
        <time>2015-03-08T13:46:22Z</time>
      </trkpt>
      <trkpt lat="45.59821" lon="4.59582">
        <ele>609.4</ele>
        <time>2015-03-08T13:46:27Z</time>
      </trkpt>
      <trkpt lat="45.59814" lon="4.59589">
        <ele>607.3</ele>
        <time>2015-03-08T13:46:36Z</time>
      </trkpt>
      <trkpt lat="45.59807" lon="4.59598">
        <ele>611.3</ele>
        <time>2015-03-08T13:46:47Z</time>
      </trkpt>
      <trkpt lat="45.59799" lon="4.59604">
        <ele>609.2</ele>
        <time>2015-03-08T13:46:56Z</time>
      </trkpt>
      <trkpt lat="45.59795" lon="4.5961">
        <ele>614.6</ele>
        <time>2015-03-08T13:47:03Z</time>
      </trkpt>
      <trkpt lat="45.59787" lon="4.59616">
        <ele>615.1</ele>
        <time>2015-03-08T13:47:12Z</time>
      </trkpt>
      <trkpt lat="45.59781" lon="4.59617">
        <ele>611.8</ele>
        <time>2015-03-08T13:47:14Z</time>
      </trkpt>
      <trkpt lat="45.59773" lon="4.59624">
        <ele>610.5</ele>
        <time>2015-03-08T13:47:24Z</time>
      </trkpt>
      <trkpt lat="45.59771" lon="4.5963">
        <ele>613.5</ele>
        <time>2015-03-08T13:47:30Z</time>
      </trkpt>
      <trkpt lat="45.59752" lon="4.59649">
        <ele>616.3</ele>
        <time>2015-03-08T13:47:52Z</time>
      </trkpt>
      <trkpt lat="45.5975" lon="4.59651">
        <ele>616</ele>
        <time>2015-03-08T13:47:55Z</time>
      </trkpt>
      <trkpt lat="45.59746" lon="4.59655">
        <ele>614.9</ele>
        <time>2015-03-08T13:48:00Z</time>
      </trkpt>
      <trkpt lat="45.59741" lon="4.59655">
        <ele>618.5</ele>
        <time>2015-03-08T13:48:04Z</time>
      </trkpt>
      <trkpt lat="45.59729" lon="4.59652">
        <ele>618.5</ele>
        <time>2015-03-08T13:48:15Z</time>
      </trkpt>
      <trkpt lat="45.5971" lon="4.59643">
        <ele>626.2</ele>
        <time>2015-03-08T13:48:34Z</time>
      </trkpt>
      <trkpt lat="45.59697" lon="4.59644">
        <ele>616.5</ele>
        <time>2015-03-08T13:48:49Z</time>
      </trkpt>
      <trkpt lat="45.59681" lon="4.59632">
        <ele>616.5</ele>
        <time>2015-03-08T13:49:06Z</time>
      </trkpt>
      <trkpt lat="45.59669" lon="4.5962">
        <ele>617.7</ele>
        <time>2015-03-08T13:49:21Z</time>
      </trkpt>
      <trkpt lat="45.59667" lon="4.59616">
        <ele>620.2</ele>
        <time>2015-03-08T13:49:25Z</time>
      </trkpt>
      <trkpt lat="45.5966" lon="4.59611">
        <ele>618.8</ele>
        <time>2015-03-08T13:49:33Z</time>
      </trkpt>
      <trkpt lat="45.59656" lon="4.59605">
        <ele>621.3</ele>
        <time>2015-03-08T13:49:37Z</time>
      </trkpt>
      <trkpt lat="45.59651" lon="4.59602">
        <ele>615.6</ele>
        <time>2015-03-08T13:49:44Z</time>
      </trkpt>
      <trkpt lat="45.59648" lon="4.59598">
        <ele>612</ele>
        <time>2015-03-08T13:49:48Z</time>
      </trkpt>
      <trkpt lat="45.59646" lon="4.59586">
        <ele>608.5</ele>
        <time>2015-03-08T13:49:55Z</time>
      </trkpt>
      <trkpt lat="45.59642" lon="4.59584">
        <ele>606.5</ele>
        <time>2015-03-08T13:49:59Z</time>
      </trkpt>
      <trkpt lat="45.5964" lon="4.59579">
        <ele>602.8</ele>
        <time>2015-03-08T13:50:03Z</time>
      </trkpt>
      <trkpt lat="45.59639" lon="4.5958">
        <ele>604.5</ele>
        <time>2015-03-08T13:50:04Z</time>
      </trkpt>
      <trkpt lat="45.5963" lon="4.5957">
        <ele>607.6</ele>
        <time>2015-03-08T13:50:15Z</time>
      </trkpt>
      <trkpt lat="45.59619" lon="4.59553">
        <ele>611.5</ele>
        <time>2015-03-08T13:50:31Z</time>
      </trkpt>
      <trkpt lat="45.59616" lon="4.59551">
        <ele>611.7</ele>
        <time>2015-03-08T13:50:35Z</time>
      </trkpt>
      <trkpt lat="45.59608" lon="4.59549">
        <ele>613.5</ele>
        <time>2015-03-08T13:50:44Z</time>
      </trkpt>
      <trkpt lat="45.59604" lon="4.59544">
        <ele>610.7</ele>
        <time>2015-03-08T13:50:49Z</time>
      </trkpt>
      <trkpt lat="45.59591" lon="4.59535">
        <ele>620</ele>
        <time>2015-03-08T13:51:04Z</time>
      </trkpt>
      <trkpt lat="45.59588" lon="4.5953">
        <ele>614.7</ele>
        <time>2015-03-08T13:51:09Z</time>
      </trkpt>
      <trkpt lat="45.59579" lon="4.59503">
        <ele>605.9</ele>
        <time>2015-03-08T13:51:27Z</time>
      </trkpt>
      <trkpt lat="45.59575" lon="4.59497">
        <ele>603.4</ele>
        <time>2015-03-08T13:51:32Z</time>
      </trkpt>
      <trkpt lat="45.59569" lon="4.59483">
        <ele>601.7</ele>
        <time>2015-03-08T13:51:45Z</time>
      </trkpt>
      <trkpt lat="45.59569" lon="4.59479">
        <ele>598.7</ele>
        <time>2015-03-08T13:51:47Z</time>
      </trkpt>
      <trkpt lat="45.59566" lon="4.59475">
        <ele>599.3</ele>
        <time>2015-03-08T13:51:52Z</time>
      </trkpt>
      <trkpt lat="45.59564" lon="4.5947">
        <ele>602.2</ele>
        <time>2015-03-08T13:51:55Z</time>
      </trkpt>
      <trkpt lat="45.59562" lon="4.59457">
        <ele>605.5</ele>
        <time>2015-03-08T13:52:03Z</time>
      </trkpt>
      <trkpt lat="45.59558" lon="4.59448">
        <ele>604.8</ele>
        <time>2015-03-08T13:52:09Z</time>
      </trkpt>
      <trkpt lat="45.59559" lon="4.59444">
        <ele>603.7</ele>
        <time>2015-03-08T13:52:11Z</time>
      </trkpt>
      <trkpt lat="45.59557" lon="4.59442">
        <ele>601.8</ele>
        <time>2015-03-08T13:52:14Z</time>
      </trkpt>
      <trkpt lat="45.59557" lon="4.59434">
        <ele>601.9</ele>
        <time>2015-03-08T13:52:18Z</time>
      </trkpt>
      <trkpt lat="45.59552" lon="4.59435">
        <ele>605.5</ele>
        <time>2015-03-08T13:52:23Z</time>
      </trkpt>
      <trkpt lat="45.59548" lon="4.59432">
        <ele>602.9</ele>
        <time>2015-03-08T13:52:27Z</time>
      </trkpt>
      <trkpt lat="45.59548" lon="4.59419">
        <ele>601.7</ele>
        <time>2015-03-08T13:52:35Z</time>
      </trkpt>
      <trkpt lat="45.59544" lon="4.59411">
        <ele>605.3</ele>
        <time>2015-03-08T13:52:42Z</time>
      </trkpt>
      <trkpt lat="45.59539" lon="4.59412">
        <ele>602.6</ele>
        <time>2015-03-08T13:52:47Z</time>
      </trkpt>
      <trkpt lat="45.59536" lon="4.5941">
        <ele>614.2</ele>
        <time>2015-03-08T13:52:50Z</time>
      </trkpt>
      <trkpt lat="45.59531" lon="4.59411">
        <ele>618</ele>
        <time>2015-03-08T13:52:53Z</time>
      </trkpt>
      <trkpt lat="45.5953" lon="4.5941">
        <ele>618.9</ele>
        <time>2015-03-08T13:52:54Z</time>
      </trkpt>
      <trkpt lat="45.5953" lon="4.59384">
        <ele>614.6</ele>
        <time>2015-03-08T13:53:05Z</time>
      </trkpt>
      <trkpt lat="45.59525" lon="4.59378">
        <ele>618.6</ele>
        <time>2015-03-08T13:53:11Z</time>
      </trkpt>
      <trkpt lat="45.59525" lon="4.5937">
        <ele>617.7</ele>
        <time>2015-03-08T13:53:14Z</time>
      </trkpt>
      <trkpt lat="45.5952" lon="4.59355">
        <ele>619.9</ele>
        <time>2015-03-08T13:53:24Z</time>
      </trkpt>
      <trkpt lat="45.59519" lon="4.59345">
        <ele>617.2</ele>
        <time>2015-03-08T13:53:30Z</time>
      </trkpt>
      <trkpt lat="45.59517" lon="4.59345">
        <ele>618.8</ele>
        <time>2015-03-08T13:53:32Z</time>
      </trkpt>
      <trkpt lat="45.59516" lon="4.5934">
        <ele>614.9</ele>
        <time>2015-03-08T13:53:35Z</time>
      </trkpt>
      <trkpt lat="45.59512" lon="4.59339">
        <ele>616.1</ele>
        <time>2015-03-08T13:53:40Z</time>
      </trkpt>
      <trkpt lat="45.59508" lon="4.59331">
        <ele>609.6</ele>
        <time>2015-03-08T13:53:50Z</time>
      </trkpt>
      <trkpt lat="45.59498" lon="4.59319">
        <ele>612.6</ele>
        <time>2015-03-08T13:53:58Z</time>
      </trkpt>
      <trkpt lat="45.59497" lon="4.59315">
        <ele>612.6</ele>
        <time>2015-03-08T13:54:02Z</time>
      </trkpt>
      <trkpt lat="45.59492" lon="4.59311">
        <ele>616.3</ele>
        <time>2015-03-08T13:54:09Z</time>
      </trkpt>
      <trkpt lat="45.59487" lon="4.59295">
        <ele>615.8</ele>
        <time>2015-03-08T13:54:18Z</time>
      </trkpt>
      <trkpt lat="45.59485" lon="4.59296">
        <ele>617.4</ele>
        <time>2015-03-08T13:54:20Z</time>
      </trkpt>
      <trkpt lat="45.5948" lon="4.59292">
        <ele>620.1</ele>
        <time>2015-03-08T13:54:26Z</time>
      </trkpt>
      <trkpt lat="45.59477" lon="4.59279">
        <ele>613</ele>
        <time>2015-03-08T13:54:34Z</time>
      </trkpt>
      <trkpt lat="45.59472" lon="4.59278">
        <ele>615.2</ele>
        <time>2015-03-08T13:54:38Z</time>
      </trkpt>
      <trkpt lat="45.59467" lon="4.59271">
        <ele>620.5</ele>
        <time>2015-03-08T13:54:46Z</time>
      </trkpt>
      <trkpt lat="45.59461" lon="4.59268">
        <ele>621.9</ele>
        <time>2015-03-08T13:54:51Z</time>
      </trkpt>
      <trkpt lat="45.59457" lon="4.59264">
        <ele>619.5</ele>
        <time>2015-03-08T13:54:55Z</time>
      </trkpt>
      <trkpt lat="45.59457" lon="4.59258">
        <ele>616</ele>
        <time>2015-03-08T13:54:57Z</time>
      </trkpt>
      <trkpt lat="45.59454" lon="4.59254">
        <ele>615.3</ele>
        <time>2015-03-08T13:55:01Z</time>
      </trkpt>
      <trkpt lat="45.59452" lon="4.59245">
        <ele>609.6</ele>
        <time>2015-03-08T13:55:07Z</time>
      </trkpt>
      <trkpt lat="45.59448" lon="4.59242">
        <ele>612.9</ele>
        <time>2015-03-08T13:55:12Z</time>
      </trkpt>
      <trkpt lat="45.59443" lon="4.59235">
        <ele>615.8</ele>
        <time>2015-03-08T13:55:18Z</time>
      </trkpt>
      <trkpt lat="45.59443" lon="4.59226">
        <ele>616.1</ele>
        <time>2015-03-08T13:55:23Z</time>
      </trkpt>
      <trkpt lat="45.59442" lon="4.59225">
        <ele>619.6</ele>
        <time>2015-03-08T13:55:25Z</time>
      </trkpt>
      <trkpt lat="45.59442" lon="4.59218">
        <ele>620.7</ele>
        <time>2015-03-08T13:55:29Z</time>
      </trkpt>
      <trkpt lat="45.59447" lon="4.59203">
        <ele>616.4</ele>
        <time>2015-03-08T13:55:37Z</time>
      </trkpt>
      <trkpt lat="45.59448" lon="4.59196">
        <ele>614.4</ele>
        <time>2015-03-08T13:55:40Z</time>
      </trkpt>
      <trkpt lat="45.59447" lon="4.59195">
        <ele>617.3</ele>
        <time>2015-03-08T13:55:42Z</time>
      </trkpt>
      <trkpt lat="45.59449" lon="4.59188">
        <ele>620.6</ele>
        <time>2015-03-08T13:55:49Z</time>
      </trkpt>
      <trkpt lat="45.59446" lon="4.59179">
        <ele>624.1</ele>
        <time>2015-03-08T13:55:57Z</time>
      </trkpt>
      <trkpt lat="45.59451" lon="4.59142">
        <ele>615.3</ele>
        <time>2015-03-08T13:56:18Z</time>
      </trkpt>
      <trkpt lat="45.5945" lon="4.59128">
        <ele>616.9</ele>
        <time>2015-03-08T13:56:28Z</time>
      </trkpt>
      <trkpt lat="45.59447" lon="4.59105">
        <ele>620.2</ele>
        <time>2015-03-08T13:56:46Z</time>
      </trkpt>
      <trkpt lat="45.59443" lon="4.59095">
        <ele>622.5</ele>
        <time>2015-03-08T13:56:55Z</time>
      </trkpt>
      <trkpt lat="45.59441" lon="4.5907">
        <ele>619.5</ele>
        <time>2015-03-08T13:57:09Z</time>
      </trkpt>
      <trkpt lat="45.59436" lon="4.59056">
        <ele>620.7</ele>
        <time>2015-03-08T13:57:22Z</time>
      </trkpt>
      <trkpt lat="45.59429" lon="4.59012">
        <ele>613.3</ele>
        <time>2015-03-08T13:57:52Z</time>
      </trkpt>
      <trkpt lat="45.59427" lon="4.59012">
        <ele>616.8</ele>
        <time>2015-03-08T13:57:55Z</time>
      </trkpt>
      <trkpt lat="45.59425" lon="4.59008">
        <ele>616.9</ele>
        <time>2015-03-08T13:57:58Z</time>
      </trkpt>
      <trkpt lat="45.59417" lon="4.58988">
        <ele>621.7</ele>
        <time>2015-03-08T13:58:16Z</time>
      </trkpt>
      <trkpt lat="45.59416" lon="4.5898">
        <ele>620.3</ele>
        <time>2015-03-08T13:58:23Z</time>
      </trkpt>
      <trkpt lat="45.59414" lon="4.58976">
        <ele>622.6</ele>
        <time>2015-03-08T13:58:27Z</time>
      </trkpt>
      <trkpt lat="45.5941" lon="4.58975">
        <ele>628</ele>
        <time>2015-03-08T13:58:31Z</time>
      </trkpt>
      <trkpt lat="45.59408" lon="4.58965">
        <ele>632.5</ele>
        <time>2015-03-08T13:58:40Z</time>
      </trkpt>
      <trkpt lat="45.59408" lon="4.58947">
        <ele>630.4</ele>
        <time>2015-03-08T13:58:51Z</time>
      </trkpt>
      <trkpt lat="45.59411" lon="4.58935">
        <ele>626.8</ele>
        <time>2015-03-08T13:58:57Z</time>
      </trkpt>
      <trkpt lat="45.5941" lon="4.58927">
        <ele>627.7</ele>
        <time>2015-03-08T13:59:04Z</time>
      </trkpt>
      <trkpt lat="45.59411" lon="4.5891">
        <ele>625.1</ele>
        <time>2015-03-08T13:59:14Z</time>
      </trkpt>
      <trkpt lat="45.5941" lon="4.58901">
        <ele>625.6</ele>
        <time>2015-03-08T13:59:20Z</time>
      </trkpt>
      <trkpt lat="45.59409" lon="4.589">
        <ele>626.6</ele>
        <time>2015-03-08T13:59:22Z</time>
      </trkpt>
      <trkpt lat="45.59397" lon="4.589">
        <ele>632.2</ele>
        <time>2015-03-08T13:59:39Z</time>
      </trkpt>
      <trkpt lat="45.59395" lon="4.58899">
        <ele>633.2</ele>
        <time>2015-03-08T13:59:40Z</time>
      </trkpt>
      <trkpt lat="45.59387" lon="4.58898">
        <ele>629.7</ele>
        <time>2015-03-08T13:59:51Z</time>
      </trkpt>
      <trkpt lat="45.59381" lon="4.58896">
        <ele>628.3</ele>
        <time>2015-03-08T13:59:56Z</time>
      </trkpt>
      <trkpt lat="45.59372" lon="4.58889">
        <ele>625.8</ele>
        <time>2015-03-08T14:00:05Z</time>
      </trkpt>
      <trkpt lat="45.5936" lon="4.58872">
        <ele>621</ele>
        <time>2015-03-08T14:00:19Z</time>
      </trkpt>
      <trkpt lat="45.59355" lon="4.58861">
        <ele>620.9</ele>
        <time>2015-03-08T14:00:30Z</time>
      </trkpt>
      <trkpt lat="45.59351" lon="4.5882">
        <ele>615.6</ele>
        <time>2015-03-08T14:00:57Z</time>
      </trkpt>
      <trkpt lat="45.5935" lon="4.5882">
        <ele>616</ele>
        <time>2015-03-08T14:01:03Z</time>
      </trkpt>
      <trkpt lat="45.59348" lon="4.58812">
        <ele>614.1</ele>
        <time>2015-03-08T14:01:09Z</time>
      </trkpt>
      <trkpt lat="45.59351" lon="4.58801">
        <ele>612.2</ele>
        <time>2015-03-08T14:01:15Z</time>
      </trkpt>
      <trkpt lat="45.59351" lon="4.58792">
        <ele>614.4</ele>
        <time>2015-03-08T14:01:24Z</time>
      </trkpt>
      <trkpt lat="45.59354" lon="4.58781">
        <ele>614.2</ele>
        <time>2015-03-08T14:01:34Z</time>
      </trkpt>
      <trkpt lat="45.59369" lon="4.58754">
        <ele>610</ele>
        <time>2015-03-08T14:02:00Z</time>
      </trkpt>
      <trkpt lat="45.59387" lon="4.58738">
        <ele>609</ele>
        <time>2015-03-08T14:02:21Z</time>
      </trkpt>
      <trkpt lat="45.59397" lon="4.58726">
        <ele>604.9</ele>
        <time>2015-03-08T14:02:31Z</time>
      </trkpt>
      <trkpt lat="45.59412" lon="4.58716">
        <ele>602.7</ele>
        <time>2015-03-08T14:02:49Z</time>
      </trkpt>
      <trkpt lat="45.59419" lon="4.58716">
        <ele>601.8</ele>
        <time>2015-03-08T14:02:59Z</time>
      </trkpt>
      <trkpt lat="45.59422" lon="4.58713">
        <ele>601.7</ele>
        <time>2015-03-08T14:03:05Z</time>
      </trkpt>
      <trkpt lat="45.59428" lon="4.58712">
        <ele>601.4</ele>
        <time>2015-03-08T14:03:11Z</time>
      </trkpt>
      <trkpt lat="45.59446" lon="4.58715">
        <ele>599</ele>
        <time>2015-03-08T14:03:32Z</time>
      </trkpt>
      <trkpt lat="45.59461" lon="4.58707">
        <ele>593</ele>
        <time>2015-03-08T14:03:49Z</time>
      </trkpt>
      <trkpt lat="45.59463" lon="4.58702">
        <ele>600.9</ele>
        <time>2015-03-08T14:03:59Z</time>
      </trkpt>
      <trkpt lat="45.59466" lon="4.58701">
        <ele>603.3</ele>
        <time>2015-03-08T14:04:03Z</time>
      </trkpt>
      <trkpt lat="45.59472" lon="4.5869">
        <ele>600.9</ele>
        <time>2015-03-08T14:04:16Z</time>
      </trkpt>
      <trkpt lat="45.59474" lon="4.58685">
        <ele>599.8</ele>
        <time>2015-03-08T14:04:20Z</time>
      </trkpt>
      <trkpt lat="45.59471" lon="4.58686">
        <ele>599.4</ele>
        <time>2015-03-08T14:04:21Z</time>
      </trkpt>
      <trkpt lat="45.59477" lon="4.58681">
        <ele>596.9</ele>
        <time>2015-03-08T14:04:26Z</time>
      </trkpt>
      <trkpt lat="45.59483" lon="4.58667">
        <ele>597.5</ele>
        <time>2015-03-08T14:04:35Z</time>
      </trkpt>
      <trkpt lat="45.59487" lon="4.58661">
        <ele>592.6</ele>
        <time>2015-03-08T14:04:45Z</time>
      </trkpt>
      <trkpt lat="45.59489" lon="4.58661">
        <ele>589.7</ele>
        <time>2015-03-08T14:04:47Z</time>
      </trkpt>
      <trkpt lat="45.59492" lon="4.58659">
        <ele>586.3</ele>
        <time>2015-03-08T14:04:52Z</time>
      </trkpt>
      <trkpt lat="45.59493" lon="4.58654">
        <ele>588.3</ele>
        <time>2015-03-08T14:04:58Z</time>
      </trkpt>
      <trkpt lat="45.59496" lon="4.58652">
        <ele>586.9</ele>
        <time>2015-03-08T14:05:01Z</time>
      </trkpt>
      <trkpt lat="45.59502" lon="4.58641">
        <ele>587.4</ele>
        <time>2015-03-08T14:05:11Z</time>
      </trkpt>
      <trkpt lat="45.59503" lon="4.58632">
        <ele>591.8</ele>
        <time>2015-03-08T14:05:16Z</time>
      </trkpt>
      <trkpt lat="45.59506" lon="4.58629">
        <ele>588.5</ele>
        <time>2015-03-08T14:05:21Z</time>
      </trkpt>
      <trkpt lat="45.59509" lon="4.5862">
        <ele>590.3</ele>
        <time>2015-03-08T14:05:27Z</time>
      </trkpt>
      <trkpt lat="45.59511" lon="4.5862">
        <ele>588.7</ele>
        <time>2015-03-08T14:05:29Z</time>
      </trkpt>
      <trkpt lat="45.59512" lon="4.58616">
        <ele>591.7</ele>
        <time>2015-03-08T14:05:32Z</time>
      </trkpt>
      <trkpt lat="45.59518" lon="4.58611">
        <ele>583.9</ele>
        <time>2015-03-08T14:05:42Z</time>
      </trkpt>
      <trkpt lat="45.5952" lon="4.58606">
        <ele>587</ele>
        <time>2015-03-08T14:05:49Z</time>
      </trkpt>
      <trkpt lat="45.59523" lon="4.58602">
        <ele>588.9</ele>
        <time>2015-03-08T14:05:51Z</time>
      </trkpt>
      <trkpt lat="45.59523" lon="4.586">
        <ele>591.4</ele>
        <time>2015-03-08T14:05:53Z</time>
      </trkpt>
      <trkpt lat="45.59527" lon="4.58603">
        <ele>579.9</ele>
        <time>2015-03-08T14:06:03Z</time>
      </trkpt>
      <trkpt lat="45.59528" lon="4.58602">
        <ele>579.3</ele>
        <time>2015-03-08T14:06:04Z</time>
      </trkpt>
      <trkpt lat="45.59537" lon="4.58578">
        <ele>583.6</ele>
        <time>2015-03-08T14:06:32Z</time>
      </trkpt>
      <trkpt lat="45.59534" lon="4.58575">
        <ele>587.4</ele>
        <time>2015-03-08T14:06:39Z</time>
      </trkpt>
      <trkpt lat="45.59534" lon="4.58569">
        <ele>590.2</ele>
        <time>2015-03-08T14:06:44Z</time>
      </trkpt>
      <trkpt lat="45.59532" lon="4.58567">
        <ele>592.1</ele>
        <time>2015-03-08T14:06:48Z</time>
      </trkpt>
      <trkpt lat="45.59534" lon="4.5856">
        <ele>594.4</ele>
        <time>2015-03-08T14:06:55Z</time>
      </trkpt>
      <trkpt lat="45.59532" lon="4.58557">
        <ele>592.9</ele>
        <time>2015-03-08T14:06:57Z</time>
      </trkpt>
      <trkpt lat="45.59527" lon="4.58557">
        <ele>592.3</ele>
        <time>2015-03-08T14:07:00Z</time>
      </trkpt>
      <trkpt lat="45.59527" lon="4.58555">
        <ele>592.1</ele>
        <time>2015-03-08T14:07:02Z</time>
      </trkpt>
      <trkpt lat="45.59529" lon="4.58553">
        <ele>590</ele>
        <time>2015-03-08T14:07:03Z</time>
      </trkpt>
      <trkpt lat="45.5953" lon="4.58542">
        <ele>587.7</ele>
        <time>2015-03-08T14:07:10Z</time>
      </trkpt>
      <trkpt lat="45.59533" lon="4.58539">
        <ele>585.3</ele>
        <time>2015-03-08T14:07:13Z</time>
      </trkpt>
      <trkpt lat="45.59532" lon="4.58538">
        <ele>585.8</ele>
        <time>2015-03-08T14:07:17Z</time>
      </trkpt>
      <trkpt lat="45.5953" lon="4.58542">
        <ele>583.3</ele>
        <time>2015-03-08T14:07:24Z</time>
      </trkpt>
      <trkpt lat="45.59528" lon="4.58542">
        <ele>583.7</ele>
        <time>2015-03-08T14:07:26Z</time>
      </trkpt>
      <trkpt lat="45.59539" lon="4.58493">
        <ele>584</ele>
        <time>2015-03-08T14:07:59Z</time>
      </trkpt>
      <trkpt lat="45.59551" lon="4.58468">
        <ele>570.8</ele>
        <time>2015-03-08T14:08:20Z</time>
      </trkpt>
      <trkpt lat="45.59551" lon="4.58465">
        <ele>572</ele>
        <time>2015-03-08T14:08:23Z</time>
      </trkpt>
      <trkpt lat="45.59557" lon="4.58446">
        <ele>567</ele>
        <time>2015-03-08T14:08:37Z</time>
      </trkpt>
      <trkpt lat="45.59565" lon="4.58426">
        <ele>564.7</ele>
        <time>2015-03-08T14:08:50Z</time>
      </trkpt>
      <trkpt lat="45.59568" lon="4.58422">
        <ele>561.4</ele>
        <time>2015-03-08T14:08:54Z</time>
      </trkpt>
      <trkpt lat="45.5957" lon="4.58415">
        <ele>561.3</ele>
        <time>2015-03-08T14:08:59Z</time>
      </trkpt>
      <trkpt lat="45.59582" lon="4.58395">
        <ele>560.6</ele>
        <time>2015-03-08T14:09:14Z</time>
      </trkpt>
      <trkpt lat="45.59589" lon="4.58386">
        <ele>561.2</ele>
        <time>2015-03-08T14:09:21Z</time>
      </trkpt>
      <trkpt lat="45.59605" lon="4.58356">
        <ele>561.4</ele>
        <time>2015-03-08T14:09:44Z</time>
      </trkpt>
      <trkpt lat="45.59607" lon="4.58349">
        <ele>564.7</ele>
        <time>2015-03-08T14:09:50Z</time>
      </trkpt>
      <trkpt lat="45.59606" lon="4.58337">
        <ele>570.2</ele>
        <time>2015-03-08T14:10:00Z</time>
      </trkpt>
      <trkpt lat="45.59607" lon="4.58329">
        <ele>574.3</ele>
        <time>2015-03-08T14:10:06Z</time>
      </trkpt>
      <trkpt lat="45.59613" lon="4.58319">
        <ele>572.8</ele>
        <time>2015-03-08T14:10:14Z</time>
      </trkpt>
      <trkpt lat="45.59618" lon="4.58302">
        <ele>573</ele>
        <time>2015-03-08T14:10:27Z</time>
      </trkpt>
      <trkpt lat="45.59621" lon="4.583">
        <ele>572.5</ele>
        <time>2015-03-08T14:10:29Z</time>
      </trkpt>
      <trkpt lat="45.59621" lon="4.5829">
        <ele>574.7</ele>
        <time>2015-03-08T14:10:36Z</time>
      </trkpt>
      <trkpt lat="45.59624" lon="4.58288">
        <ele>573.6</ele>
        <time>2015-03-08T14:10:38Z</time>
      </trkpt>
      <trkpt lat="45.59623" lon="4.58282">
        <ele>576.7</ele>
        <time>2015-03-08T14:10:43Z</time>
      </trkpt>
      <trkpt lat="45.59632" lon="4.58265">
        <ele>576.9</ele>
        <time>2015-03-08T14:10:57Z</time>
      </trkpt>
      <trkpt lat="45.59638" lon="4.58247">
        <ele>578.4</ele>
        <time>2015-03-08T14:11:11Z</time>
      </trkpt>
      <trkpt lat="45.5964" lon="4.58229">
        <ele>579</ele>
        <time>2015-03-08T14:11:25Z</time>
      </trkpt>
      <trkpt lat="45.59637" lon="4.58228">
        <ele>582.2</ele>
        <time>2015-03-08T14:11:28Z</time>
      </trkpt>
      <trkpt lat="45.5964" lon="4.5821">
        <ele>584.1</ele>
        <time>2015-03-08T14:11:41Z</time>
      </trkpt>
      <trkpt lat="45.59644" lon="4.58208">
        <ele>580.5</ele>
        <time>2015-03-08T14:11:45Z</time>
      </trkpt>
      <trkpt lat="45.59646" lon="4.58204">
        <ele>575.6</ele>
        <time>2015-03-08T14:12:06Z</time>
      </trkpt>
      <trkpt lat="45.59645" lon="4.58186">
        <ele>576.9</ele>
        <time>2015-03-08T14:12:18Z</time>
      </trkpt>
      <trkpt lat="45.59642" lon="4.58168">
        <ele>580.4</ele>
        <time>2015-03-08T14:12:31Z</time>
      </trkpt>
      <trkpt lat="45.59648" lon="4.58143">
        <ele>577.3</ele>
        <time>2015-03-08T14:12:46Z</time>
      </trkpt>
      <trkpt lat="45.59653" lon="4.58136">
        <ele>573.4</ele>
        <time>2015-03-08T14:12:50Z</time>
      </trkpt>
      <trkpt lat="45.59654" lon="4.58131">
        <ele>573.5</ele>
        <time>2015-03-08T14:12:53Z</time>
      </trkpt>
      <trkpt lat="45.59659" lon="4.58123">
        <ele>571.4</ele>
        <time>2015-03-08T14:12:59Z</time>
      </trkpt>
      <trkpt lat="45.59669" lon="4.58089">
        <ele>572.9</ele>
        <time>2015-03-08T14:13:24Z</time>
      </trkpt>
      <trkpt lat="45.59689" lon="4.58046">
        <ele>565.9</ele>
        <time>2015-03-08T14:14:00Z</time>
      </trkpt>
      <trkpt lat="45.59697" lon="4.58039">
        <ele>563.6</ele>
        <time>2015-03-08T14:14:07Z</time>
      </trkpt>
      <trkpt lat="45.59719" lon="4.58013">
        <ele>561.6</ele>
        <time>2015-03-08T14:14:30Z</time>
      </trkpt>
      <trkpt lat="45.59729" lon="4.58008">
        <ele>563.2</ele>
        <time>2015-03-08T14:14:40Z</time>
      </trkpt>
      <trkpt lat="45.5973" lon="4.58004">
        <ele>567.5</ele>
        <time>2015-03-08T14:14:44Z</time>
      </trkpt>
      <trkpt lat="45.59736" lon="4.58">
        <ele>568</ele>
        <time>2015-03-08T14:14:50Z</time>
      </trkpt>
      <trkpt lat="45.59733" lon="4.57999">
        <ele>574.9</ele>
        <time>2015-03-08T14:14:55Z</time>
      </trkpt>
      <trkpt lat="45.59736" lon="4.57995">
        <ele>573.3</ele>
        <time>2015-03-08T14:14:59Z</time>
      </trkpt>
      <trkpt lat="45.59735" lon="4.57989">
        <ele>577.6</ele>
        <time>2015-03-08T14:15:05Z</time>
      </trkpt>
      <trkpt lat="45.59732" lon="4.57988">
        <ele>580.5</ele>
        <time>2015-03-08T14:15:09Z</time>
      </trkpt>
      <trkpt lat="45.59726" lon="4.5797">
        <ele>587.2</ele>
        <time>2015-03-08T14:15:27Z</time>
      </trkpt>
      <trkpt lat="45.59732" lon="4.57944">
        <ele>576.9</ele>
        <time>2015-03-08T14:15:42Z</time>
      </trkpt>
      <trkpt lat="45.59732" lon="4.57928">
        <ele>574.9</ele>
        <time>2015-03-08T14:15:54Z</time>
      </trkpt>
      <trkpt lat="45.59734" lon="4.57917">
        <ele>574.2</ele>
        <time>2015-03-08T14:16:01Z</time>
      </trkpt>
      <trkpt lat="45.59736" lon="4.57882">
        <ele>574.9</ele>
        <time>2015-03-08T14:16:26Z</time>
      </trkpt>
      <trkpt lat="45.59732" lon="4.57864">
        <ele>573.8</ele>
        <time>2015-03-08T14:16:40Z</time>
      </trkpt>
      <trkpt lat="45.59733" lon="4.57862">
        <ele>571.9</ele>
        <time>2015-03-08T14:16:45Z</time>
      </trkpt>
      <trkpt lat="45.59733" lon="4.57866">
        <ele>576.2</ele>
        <time>2015-03-08T14:16:50Z</time>
      </trkpt>
      <trkpt lat="45.59734" lon="4.57865">
        <ele>577.6</ele>
        <time>2015-03-08T14:16:54Z</time>
      </trkpt>
      <trkpt lat="45.59738" lon="4.57858">
        <ele>575.9</ele>
        <time>2015-03-08T14:17:18Z</time>
      </trkpt>
      <trkpt lat="45.59733" lon="4.57852">
        <ele>574.3</ele>
        <time>2015-03-08T14:17:25Z</time>
      </trkpt>
      <trkpt lat="45.59733" lon="4.57851">
        <ele>574.1</ele>
        <time>2015-03-08T14:17:38Z</time>
      </trkpt>
      <trkpt lat="45.59733" lon="4.5784">
        <ele>570.2</ele>
        <time>2015-03-08T14:17:55Z</time>
      </trkpt>
      <trkpt lat="45.59734" lon="4.57837">
        <ele>565.6</ele>
        <time>2015-03-08T14:18:11Z</time>
      </trkpt>
      <trkpt lat="45.59728" lon="4.57836">
        <ele>571.7</ele>
        <time>2015-03-08T14:18:21Z</time>
      </trkpt>
      <trkpt lat="45.59728" lon="4.57833">
        <ele>573.4</ele>
        <time>2015-03-08T14:18:26Z</time>
      </trkpt>
      <trkpt lat="45.59725" lon="4.57828">
        <ele>575.1</ele>
        <time>2015-03-08T14:18:32Z</time>
      </trkpt>
      <trkpt lat="45.59723" lon="4.57828">
        <ele>578.4</ele>
        <time>2015-03-08T14:18:38Z</time>
      </trkpt>
      <trkpt lat="45.59721" lon="4.57829">
        <ele>580</ele>
        <time>2015-03-08T14:18:42Z</time>
      </trkpt>
      <trkpt lat="45.59718" lon="4.57836">
        <ele>582.4</ele>
        <time>2015-03-08T14:18:47Z</time>
      </trkpt>
      <trkpt lat="45.59715" lon="4.57837">
        <ele>582.9</ele>
        <time>2015-03-08T14:18:52Z</time>
      </trkpt>
      <trkpt lat="45.59715" lon="4.5784">
        <ele>585.8</ele>
        <time>2015-03-08T14:18:53Z</time>
      </trkpt>
      <trkpt lat="45.59714" lon="4.57841">
        <ele>587.2</ele>
        <time>2015-03-08T14:18:54Z</time>
      </trkpt>
      <trkpt lat="45.59714" lon="4.57838">
        <ele>586.2</ele>
        <time>2015-03-08T14:18:57Z</time>
      </trkpt>
      <trkpt lat="45.59711" lon="4.57842">
        <ele>582.6</ele>
        <time>2015-03-08T14:19:07Z</time>
      </trkpt>
      <trkpt lat="45.59712" lon="4.5784">
        <ele>580.4</ele>
        <time>2015-03-08T14:19:08Z</time>
      </trkpt>
      <trkpt lat="45.59701" lon="4.57846">
        <ele>585.6</ele>
        <time>2015-03-08T14:19:16Z</time>
      </trkpt>
      <trkpt lat="45.59696" lon="4.57854">
        <ele>587.7</ele>
        <time>2015-03-08T14:19:23Z</time>
      </trkpt>
      <trkpt lat="45.59693" lon="4.57853">
        <ele>587.6</ele>
        <time>2015-03-08T14:19:30Z</time>
      </trkpt>
      <trkpt lat="45.59695" lon="4.57853">
        <ele>573.2</ele>
        <time>2015-03-08T14:19:39Z</time>
      </trkpt>
      <trkpt lat="45.59689" lon="4.5786">
        <ele>580.9</ele>
        <time>2015-03-08T14:19:44Z</time>
      </trkpt>
      <trkpt lat="45.59687" lon="4.57866">
        <ele>587.4</ele>
        <time>2015-03-08T14:19:49Z</time>
      </trkpt>
      <trkpt lat="45.59675" lon="4.57875">
        <ele>601.5</ele>
        <time>2015-03-08T14:20:02Z</time>
      </trkpt>
      <trkpt lat="45.59668" lon="4.57873">
        <ele>599.8</ele>
        <time>2015-03-08T14:20:07Z</time>
      </trkpt>
      <trkpt lat="45.59666" lon="4.5787">
        <ele>597.3</ele>
        <time>2015-03-08T14:20:10Z</time>
      </trkpt>
      <trkpt lat="45.59661" lon="4.57873">
        <ele>600</ele>
        <time>2015-03-08T14:20:15Z</time>
      </trkpt>
      <trkpt lat="45.59661" lon="4.57871">
        <ele>598.7</ele>
        <time>2015-03-08T14:20:17Z</time>
      </trkpt>
      <trkpt lat="45.59657" lon="4.57872">
        <ele>598.6</ele>
        <time>2015-03-08T14:20:20Z</time>
      </trkpt>
      <trkpt lat="45.59654" lon="4.5787">
        <ele>601.5</ele>
        <time>2015-03-08T14:20:22Z</time>
      </trkpt>
      <trkpt lat="45.5965" lon="4.57871">
        <ele>602.1</ele>
        <time>2015-03-08T14:20:24Z</time>
      </trkpt>
      <trkpt lat="45.59649" lon="4.57869">
        <ele>601.5</ele>
        <time>2015-03-08T14:20:25Z</time>
      </trkpt>
      <trkpt lat="45.5964" lon="4.57868">
        <ele>600.1</ele>
        <time>2015-03-08T14:20:32Z</time>
      </trkpt>
      <trkpt lat="45.59624" lon="4.57858">
        <ele>591.7</ele>
        <time>2015-03-08T14:20:45Z</time>
      </trkpt>
      <trkpt lat="45.5962" lon="4.5786">
        <ele>577.8</ele>
        <time>2015-03-08T14:20:50Z</time>
      </trkpt>
      <trkpt lat="45.59614" lon="4.57854">
        <ele>594</ele>
        <time>2015-03-08T14:20:55Z</time>
      </trkpt>
      <trkpt lat="45.5961" lon="4.57852">
        <ele>590.4</ele>
        <time>2015-03-08T14:20:59Z</time>
      </trkpt>
      <trkpt lat="45.59609" lon="4.57849">
        <ele>588.9</ele>
        <time>2015-03-08T14:21:08Z</time>
      </trkpt>
      <trkpt lat="45.59606" lon="4.5785">
        <ele>593</ele>
        <time>2015-03-08T14:21:12Z</time>
      </trkpt>
      <trkpt lat="45.59599" lon="4.57849">
        <ele>597.5</ele>
        <time>2015-03-08T14:21:21Z</time>
      </trkpt>
      <trkpt lat="45.59599" lon="4.57846">
        <ele>595.9</ele>
        <time>2015-03-08T14:21:24Z</time>
      </trkpt>
      <trkpt lat="45.59597" lon="4.57844">
        <ele>598.8</ele>
        <time>2015-03-08T14:21:30Z</time>
      </trkpt>
      <trkpt lat="45.59598" lon="4.57836">
        <ele>603.9</ele>
        <time>2015-03-08T14:21:44Z</time>
      </trkpt>
      <trkpt lat="45.59596" lon="4.57831">
        <ele>608.4</ele>
        <time>2015-03-08T14:21:51Z</time>
      </trkpt>
      <trkpt lat="45.59593" lon="4.57831">
        <ele>610.9</ele>
        <time>2015-03-08T14:21:56Z</time>
      </trkpt>
      <trkpt lat="45.59593" lon="4.57828">
        <ele>612.3</ele>
        <time>2015-03-08T14:22:00Z</time>
      </trkpt>
      <trkpt lat="45.59592" lon="4.57825">
        <ele>615</ele>
        <time>2015-03-08T14:22:06Z</time>
      </trkpt>
      <trkpt lat="45.59599" lon="4.57818">
        <ele>614.9</ele>
        <time>2015-03-08T14:22:14Z</time>
      </trkpt>
      <trkpt lat="45.59603" lon="4.57811">
        <ele>611.5</ele>
        <time>2015-03-08T14:22:23Z</time>
      </trkpt>
      <trkpt lat="45.59608" lon="4.5781">
        <ele>612.5</ele>
        <time>2015-03-08T14:22:26Z</time>
      </trkpt>
      <trkpt lat="45.59609" lon="4.57807">
        <ele>612.3</ele>
        <time>2015-03-08T14:22:28Z</time>
      </trkpt>
      <trkpt lat="45.59607" lon="4.57802">
        <ele>612.4</ele>
        <time>2015-03-08T14:22:32Z</time>
      </trkpt>
      <trkpt lat="45.59613" lon="4.57794">
        <ele>613.6</ele>
        <time>2015-03-08T14:22:41Z</time>
      </trkpt>
      <trkpt lat="45.59611" lon="4.5779">
        <ele>615</ele>
        <time>2015-03-08T14:22:45Z</time>
      </trkpt>
      <trkpt lat="45.59613" lon="4.57788">
        <ele>616.4</ele>
        <time>2015-03-08T14:22:48Z</time>
      </trkpt>
      <trkpt lat="45.59613" lon="4.57783">
        <ele>621.9</ele>
        <time>2015-03-08T14:22:57Z</time>
      </trkpt>
      <trkpt lat="45.59623" lon="4.57773">
        <ele>616.7</ele>
        <time>2015-03-08T14:23:07Z</time>
      </trkpt>
      <trkpt lat="45.59626" lon="4.57766">
        <ele>617.3</ele>
        <time>2015-03-08T14:23:15Z</time>
      </trkpt>
      <trkpt lat="45.59628" lon="4.57765">
        <ele>616.2</ele>
        <time>2015-03-08T14:23:20Z</time>
      </trkpt>
      <trkpt lat="45.59634" lon="4.57757">
        <ele>615.9</ele>
        <time>2015-03-08T14:23:26Z</time>
      </trkpt>
      <trkpt lat="45.59639" lon="4.57755">
        <ele>618.2</ele>
        <time>2015-03-08T14:23:37Z</time>
      </trkpt>
      <trkpt lat="45.5964" lon="4.5775">
        <ele>615.6</ele>
        <time>2015-03-08T14:23:41Z</time>
      </trkpt>
      <trkpt lat="45.59642" lon="4.5775">
        <ele>600.6</ele>
        <time>2015-03-08T14:23:46Z</time>
      </trkpt>
      <trkpt lat="45.59646" lon="4.57754">
        <ele>617.3</ele>
        <time>2015-03-08T14:23:49Z</time>
      </trkpt>
      <trkpt lat="45.59654" lon="4.57742">
        <ele>617.8</ele>
        <time>2015-03-08T14:24:10Z</time>
      </trkpt>
      <trkpt lat="45.59654" lon="4.57735">
        <ele>624.3</ele>
        <time>2015-03-08T14:25:39Z</time>
      </trkpt>
      <trkpt lat="45.59654" lon="4.57733">
        <ele>625.2</ele>
        <time>2015-03-08T14:25:41Z</time>
      </trkpt>
      <trkpt lat="45.59651" lon="4.57729">
        <ele>627</ele>
        <time>2015-03-08T14:25:53Z</time>
      </trkpt>
      <trkpt lat="45.59651" lon="4.57727">
        <ele>627.1</ele>
        <time>2015-03-08T14:25:55Z</time>
      </trkpt>
      <trkpt lat="45.59647" lon="4.57725">
        <ele>625.3</ele>
        <time>2015-03-08T14:26:00Z</time>
      </trkpt>
      <trkpt lat="45.59642" lon="4.57704">
        <ele>626.6</ele>
        <time>2015-03-08T14:26:25Z</time>
      </trkpt>
      <trkpt lat="45.59639" lon="4.57699">
        <ele>632.8</ele>
        <time>2015-03-08T14:26:38Z</time>
      </trkpt>
      <trkpt lat="45.59645" lon="4.57689">
        <ele>631.8</ele>
        <time>2015-03-08T14:26:52Z</time>
      </trkpt>
      <trkpt lat="45.59654" lon="4.57664">
        <ele>637.7</ele>
        <time>2015-03-08T14:27:23Z</time>
      </trkpt>
      <trkpt lat="45.59656" lon="4.5765">
        <ele>643.5</ele>
        <time>2015-03-08T14:27:48Z</time>
      </trkpt>
      <trkpt lat="45.59664" lon="4.57632">
        <ele>641.9</ele>
        <time>2015-03-08T14:28:07Z</time>
      </trkpt>
      <trkpt lat="45.59662" lon="4.57629">
        <ele>645.1</ele>
        <time>2015-03-08T14:28:17Z</time>
      </trkpt>
      <trkpt lat="45.59665" lon="4.57621">
        <ele>652.9</ele>
        <time>2015-03-08T14:28:30Z</time>
      </trkpt>
      <trkpt lat="45.59663" lon="4.57612">
        <ele>655.8</ele>
        <time>2015-03-08T14:28:46Z</time>
      </trkpt>
      <trkpt lat="45.59671" lon="4.57597">
        <ele>663.6</ele>
        <time>2015-03-08T14:29:14Z</time>
      </trkpt>
      <trkpt lat="45.59668" lon="4.57589">
        <ele>663.5</ele>
        <time>2015-03-08T14:29:23Z</time>
      </trkpt>
      <trkpt lat="45.59673" lon="4.57569">
        <ele>654</ele>
        <time>2015-03-08T14:29:39Z</time>
      </trkpt>
      <trkpt lat="45.59671" lon="4.57565">
        <ele>654.9</ele>
        <time>2015-03-08T14:29:45Z</time>
      </trkpt>
      <trkpt lat="45.59669" lon="4.57564">
        <ele>656.8</ele>
        <time>2015-03-08T14:29:53Z</time>
      </trkpt>
      <trkpt lat="45.59668" lon="4.5755">
        <ele>664</ele>
        <time>2015-03-08T14:30:12Z</time>
      </trkpt>
      <trkpt lat="45.59666" lon="4.57549">
        <ele>666</ele>
        <time>2015-03-08T14:30:15Z</time>
      </trkpt>
      <trkpt lat="45.59663" lon="4.5754">
        <ele>671.3</ele>
        <time>2015-03-08T14:30:32Z</time>
      </trkpt>
      <trkpt lat="45.59666" lon="4.5753">
        <ele>672.8</ele>
        <time>2015-03-08T14:30:45Z</time>
      </trkpt>
      <trkpt lat="45.59664" lon="4.57528">
        <ele>672.9</ele>
        <time>2015-03-08T14:30:50Z</time>
      </trkpt>
      <trkpt lat="45.59665" lon="4.57521">
        <ele>669.4</ele>
        <time>2015-03-08T14:30:59Z</time>
      </trkpt>
      <trkpt lat="45.59662" lon="4.57513">
        <ele>666.8</ele>
        <time>2015-03-08T14:31:09Z</time>
      </trkpt>
      <trkpt lat="45.59662" lon="4.5751">
        <ele>667.2</ele>
        <time>2015-03-08T14:31:11Z</time>
      </trkpt>
      <trkpt lat="45.59667" lon="4.57507">
        <ele>666.3</ele>
        <time>2015-03-08T14:31:19Z</time>
      </trkpt>
      <trkpt lat="45.59663" lon="4.57505">
        <ele>669.1</ele>
        <time>2015-03-08T14:31:33Z</time>
      </trkpt>
      <trkpt lat="45.59661" lon="4.57502">
        <ele>670.8</ele>
        <time>2015-03-08T14:31:41Z</time>
      </trkpt>
      <trkpt lat="45.59659" lon="4.57496">
        <ele>672</ele>
        <time>2015-03-08T14:31:50Z</time>
      </trkpt>
      <trkpt lat="45.59656" lon="4.57493">
        <ele>678.4</ele>
        <time>2015-03-08T14:32:01Z</time>
      </trkpt>
      <trkpt lat="45.59656" lon="4.57487">
        <ele>679</ele>
        <time>2015-03-08T14:32:07Z</time>
      </trkpt>
      <trkpt lat="45.59658" lon="4.57487">
        <ele>680.6</ele>
        <time>2015-03-08T14:32:15Z</time>
      </trkpt>
      <trkpt lat="45.59661" lon="4.57485">
        <ele>682.9</ele>
        <time>2015-03-08T14:32:21Z</time>
      </trkpt>
      <trkpt lat="45.59663" lon="4.57479">
        <ele>682</ele>
        <time>2015-03-08T14:32:29Z</time>
      </trkpt>
      <trkpt lat="45.59661" lon="4.57471">
        <ele>680.5</ele>
        <time>2015-03-08T14:32:40Z</time>
      </trkpt>
      <trkpt lat="45.5966" lon="4.57469">
        <ele>680.3</ele>
        <time>2015-03-08T14:32:47Z</time>
      </trkpt>
      <trkpt lat="45.5966" lon="4.57466">
        <ele>680.4</ele>
        <time>2015-03-08T14:32:51Z</time>
      </trkpt>
      <trkpt lat="45.59658" lon="4.57459">
        <ele>683.6</ele>
        <time>2015-03-08T14:33:04Z</time>
      </trkpt>
      <trkpt lat="45.59661" lon="4.57428">
        <ele>682</ele>
        <time>2015-03-08T14:33:39Z</time>
      </trkpt>
      <trkpt lat="45.59656" lon="4.57411">
        <ele>684</ele>
        <time>2015-03-08T14:34:05Z</time>
      </trkpt>
      <trkpt lat="45.59656" lon="4.57401">
        <ele>691</ele>
        <time>2015-03-08T14:34:20Z</time>
      </trkpt>
      <trkpt lat="45.59657" lon="4.57395">
        <ele>689.6</ele>
        <time>2015-03-08T14:34:25Z</time>
      </trkpt>
      <trkpt lat="45.59656" lon="4.57387">
        <ele>692.5</ele>
        <time>2015-03-08T14:34:36Z</time>
      </trkpt>
      <trkpt lat="45.59657" lon="4.57369">
        <ele>689.4</ele>
        <time>2015-03-08T14:34:56Z</time>
      </trkpt>
      <trkpt lat="45.59655" lon="4.57355">
        <ele>691.9</ele>
        <time>2015-03-08T14:35:12Z</time>
      </trkpt>
      <trkpt lat="45.59657" lon="4.57347">
        <ele>693.6</ele>
        <time>2015-03-08T14:35:22Z</time>
      </trkpt>
      <trkpt lat="45.59673" lon="4.57328">
        <ele>694.6</ele>
        <time>2015-03-08T14:35:49Z</time>
      </trkpt>
      <trkpt lat="45.59675" lon="4.57333">
        <ele>691.7</ele>
        <time>2015-03-08T14:36:02Z</time>
      </trkpt>
      <trkpt lat="45.59675" lon="4.57329">
        <ele>694.4</ele>
        <time>2015-03-08T14:36:15Z</time>
      </trkpt>
      <trkpt lat="45.59686" lon="4.57307">
        <ele>693.6</ele>
        <time>2015-03-08T14:36:50Z</time>
      </trkpt>
      <trkpt lat="45.59692" lon="4.57299">
        <ele>693.7</ele>
        <time>2015-03-08T14:37:01Z</time>
      </trkpt>
      <trkpt lat="45.59693" lon="4.57299">
        <ele>692.9</ele>
        <time>2015-03-08T14:37:03Z</time>
      </trkpt>
      <trkpt lat="45.59694" lon="4.57301">
        <ele>693.4</ele>
        <time>2015-03-08T14:37:14Z</time>
      </trkpt>
      <trkpt lat="45.59696" lon="4.57291">
        <ele>696.2</ele>
        <time>2015-03-08T14:37:35Z</time>
      </trkpt>
      <trkpt lat="45.59702" lon="4.5728">
        <ele>698.7</ele>
        <time>2015-03-08T14:37:47Z</time>
      </trkpt>
      <trkpt lat="45.59712" lon="4.57258">
        <ele>696.5</ele>
        <time>2015-03-08T14:38:05Z</time>
      </trkpt>
      <trkpt lat="45.59722" lon="4.57242">
        <ele>698.9</ele>
        <time>2015-03-08T14:38:23Z</time>
      </trkpt>
      <trkpt lat="45.59732" lon="4.57215">
        <ele>697.6</ele>
        <time>2015-03-08T14:38:43Z</time>
      </trkpt>
      <trkpt lat="45.59743" lon="4.57192">
        <ele>700.6</ele>
        <time>2015-03-08T14:39:03Z</time>
      </trkpt>
      <trkpt lat="45.59758" lon="4.5717">
        <ele>705.2</ele>
        <time>2015-03-08T14:39:25Z</time>
      </trkpt>
      <trkpt lat="45.5978" lon="4.57126">
        <ele>702.7</ele>
        <time>2015-03-08T14:40:01Z</time>
      </trkpt>
      <trkpt lat="45.59791" lon="4.57119">
        <ele>711.2</ele>
        <time>2015-03-08T14:40:11Z</time>
      </trkpt>
      <trkpt lat="45.59806" lon="4.57101">
        <ele>709.2</ele>
        <time>2015-03-08T14:40:33Z</time>
      </trkpt>
      <trkpt lat="45.59813" lon="4.57096">
        <ele>708</ele>
        <time>2015-03-08T14:40:39Z</time>
      </trkpt>
      <trkpt lat="45.59826" lon="4.5709">
        <ele>707.9</ele>
        <time>2015-03-08T14:40:49Z</time>
      </trkpt>
      <trkpt lat="45.59834" lon="4.57082">
        <ele>713</ele>
        <time>2015-03-08T14:40:57Z</time>
      </trkpt>
      <trkpt lat="45.59854" lon="4.57076">
        <ele>713.6</ele>
        <time>2015-03-08T14:41:14Z</time>
      </trkpt>
      <trkpt lat="45.5986" lon="4.5707">
        <ele>717.5</ele>
        <time>2015-03-08T14:41:22Z</time>
      </trkpt>
      <trkpt lat="45.59872" lon="4.57071">
        <ele>719.2</ele>
        <time>2015-03-08T14:41:34Z</time>
      </trkpt>
      <trkpt lat="45.59878" lon="4.57068">
        <ele>721.2</ele>
        <time>2015-03-08T14:41:44Z</time>
      </trkpt>
      <trkpt lat="45.59886" lon="4.57078">
        <ele>712.1</ele>
        <time>2015-03-08T14:41:51Z</time>
      </trkpt>
      <trkpt lat="45.59895" lon="4.57081">
        <ele>708.1</ele>
        <time>2015-03-08T14:41:58Z</time>
      </trkpt>
      <trkpt lat="45.59899" lon="4.57085">
        <ele>706.3</ele>
        <time>2015-03-08T14:42:02Z</time>
      </trkpt>
      <trkpt lat="45.59927" lon="4.57087">
        <ele>701.5</ele>
        <time>2015-03-08T14:42:25Z</time>
      </trkpt>
      <trkpt lat="45.59931" lon="4.57076">
        <ele>702.7</ele>
        <time>2015-03-08T14:42:37Z</time>
      </trkpt>
      <trkpt lat="45.59932" lon="4.57065">
        <ele>701.7</ele>
        <time>2015-03-08T14:42:45Z</time>
      </trkpt>
      <trkpt lat="45.59934" lon="4.57062">
        <ele>702.1</ele>
        <time>2015-03-08T14:42:48Z</time>
      </trkpt>
      <trkpt lat="45.59934" lon="4.5706">
        <ele>702.2</ele>
        <time>2015-03-08T14:42:50Z</time>
      </trkpt>
      <trkpt lat="45.59938" lon="4.57057">
        <ele>708.9</ele>
        <time>2015-03-08T14:42:57Z</time>
      </trkpt>
      <trkpt lat="45.5994" lon="4.57052">
        <ele>708.4</ele>
        <time>2015-03-08T14:43:01Z</time>
      </trkpt>
      <trkpt lat="45.59939" lon="4.5705">
        <ele>709.9</ele>
        <time>2015-03-08T14:43:05Z</time>
      </trkpt>
      <trkpt lat="45.59936" lon="4.5705">
        <ele>713.4</ele>
        <time>2015-03-08T14:43:09Z</time>
      </trkpt>
      <trkpt lat="45.59938" lon="4.57045">
        <ele>723.5</ele>
        <time>2015-03-08T14:43:24Z</time>
      </trkpt>
      <trkpt lat="45.59945" lon="4.57042">
        <ele>719.9</ele>
        <time>2015-03-08T14:43:31Z</time>
      </trkpt>
      <trkpt lat="45.5995" lon="4.57041">
        <ele>718.6</ele>
        <time>2015-03-08T14:43:35Z</time>
      </trkpt>
      <trkpt lat="45.5996" lon="4.57043">
        <ele>722.9</ele>
        <time>2015-03-08T14:43:56Z</time>
      </trkpt>
      <trkpt lat="45.59966" lon="4.57038">
        <ele>714.7</ele>
        <time>2015-03-08T14:44:02Z</time>
      </trkpt>
      <trkpt lat="45.5997" lon="4.57043">
        <ele>711.2</ele>
        <time>2015-03-08T14:44:09Z</time>
      </trkpt>
      <trkpt lat="45.59969" lon="4.57046">
        <ele>713.7</ele>
        <time>2015-03-08T14:44:13Z</time>
      </trkpt>
      <trkpt lat="45.59973" lon="4.57045">
        <ele>715.3</ele>
        <time>2015-03-08T14:44:18Z</time>
      </trkpt>
      <trkpt lat="45.59976" lon="4.5704">
        <ele>713.3</ele>
        <time>2015-03-08T14:44:22Z</time>
      </trkpt>
      <trkpt lat="45.59978" lon="4.57033">
        <ele>715.2</ele>
        <time>2015-03-08T14:44:27Z</time>
      </trkpt>
      <trkpt lat="45.59978" lon="4.57028">
        <ele>716</ele>
        <time>2015-03-08T14:44:30Z</time>
      </trkpt>
      <trkpt lat="45.59978" lon="4.57026">
        <ele>716.7</ele>
        <time>2015-03-08T14:44:31Z</time>
      </trkpt>
      <trkpt lat="45.59974" lon="4.57027">
        <ele>728</ele>
        <time>2015-03-08T14:44:35Z</time>
      </trkpt>
      <trkpt lat="45.5997" lon="4.57022">
        <ele>739.1</ele>
        <time>2015-03-08T14:44:44Z</time>
      </trkpt>
      <trkpt lat="45.59976" lon="4.57023">
        <ele>732.4</ele>
        <time>2015-03-08T14:44:50Z</time>
      </trkpt>
      <trkpt lat="45.59979" lon="4.57025">
        <ele>729.6</ele>
        <time>2015-03-08T14:44:52Z</time>
      </trkpt>
      <trkpt lat="45.59981" lon="4.57026">
        <ele>729.8</ele>
        <time>2015-03-08T14:44:54Z</time>
      </trkpt>
      <trkpt lat="45.59991" lon="4.57024">
        <ele>722.7</ele>
        <time>2015-03-08T14:44:59Z</time>
      </trkpt>
      <trkpt lat="45.59993" lon="4.57026">
        <ele>720.2</ele>
        <time>2015-03-08T14:45:01Z</time>
      </trkpt>
      <trkpt lat="45.59996" lon="4.57031">
        <ele>721.3</ele>
        <time>2015-03-08T14:45:05Z</time>
      </trkpt>
      <trkpt lat="45.59997" lon="4.57042">
        <ele>721.2</ele>
        <time>2015-03-08T14:45:13Z</time>
      </trkpt>
      <trkpt lat="45.59996" lon="4.57065">
        <ele>722.3</ele>
        <time>2015-03-08T14:45:48Z</time>
      </trkpt>
      <trkpt lat="45.59998" lon="4.57072">
        <ele>725.2</ele>
        <time>2015-03-08T14:45:55Z</time>
      </trkpt>
      <trkpt lat="45.59998" lon="4.57081">
        <ele>721.2</ele>
        <time>2015-03-08T14:46:06Z</time>
      </trkpt>
      <trkpt lat="45.60009" lon="4.57099">
        <ele>722.9</ele>
        <time>2015-03-08T14:46:21Z</time>
      </trkpt>
      <trkpt lat="45.6002" lon="4.57128">
        <ele>723</ele>
        <time>2015-03-08T14:46:45Z</time>
      </trkpt>
      <trkpt lat="45.60027" lon="4.57138">
        <ele>721.5</ele>
        <time>2015-03-08T14:46:55Z</time>
      </trkpt>
      <trkpt lat="45.60033" lon="4.57154">
        <ele>722</ele>
        <time>2015-03-08T14:47:06Z</time>
      </trkpt>
      <trkpt lat="45.60037" lon="4.57159">
        <ele>720</ele>
        <time>2015-03-08T14:47:10Z</time>
      </trkpt>
      <trkpt lat="45.60045" lon="4.57182">
        <ele>722.7</ele>
        <time>2015-03-08T14:47:41Z</time>
      </trkpt>
      <trkpt lat="45.60049" lon="4.57199">
        <ele>726.6</ele>
        <time>2015-03-08T14:47:58Z</time>
      </trkpt>
      <trkpt lat="45.60051" lon="4.57205">
        <ele>726</ele>
        <time>2015-03-08T14:48:02Z</time>
      </trkpt>
      <trkpt lat="45.60053" lon="4.57206">
        <ele>724.9</ele>
        <time>2015-03-08T14:48:07Z</time>
      </trkpt>
      <trkpt lat="45.60055" lon="4.57216">
        <ele>726</ele>
        <time>2015-03-08T14:48:15Z</time>
      </trkpt>
      <trkpt lat="45.60059" lon="4.57226">
        <ele>726</ele>
        <time>2015-03-08T14:48:24Z</time>
      </trkpt>
      <trkpt lat="45.60061" lon="4.57237">
        <ele>725.1</ele>
        <time>2015-03-08T14:48:32Z</time>
      </trkpt>
      <trkpt lat="45.60067" lon="4.57297">
        <ele>731.8</ele>
        <time>2015-03-08T14:49:19Z</time>
      </trkpt>
      <trkpt lat="45.60074" lon="4.5731">
        <ele>736.2</ele>
        <time>2015-03-08T14:49:32Z</time>
      </trkpt>
      <trkpt lat="45.60075" lon="4.57319">
        <ele>736.6</ele>
        <time>2015-03-08T14:49:42Z</time>
      </trkpt>
      <trkpt lat="45.60083" lon="4.57333">
        <ele>735.8</ele>
        <time>2015-03-08T14:49:59Z</time>
      </trkpt>
      <trkpt lat="45.60082" lon="4.57333">
        <ele>736.4</ele>
        <time>2015-03-08T14:50:01Z</time>
      </trkpt>
      <trkpt lat="45.6008" lon="4.57334">
        <ele>733.4</ele>
        <time>2015-03-08T14:51:12Z</time>
      </trkpt>
      <trkpt lat="45.60088" lon="4.57356">
        <ele>736.4</ele>
        <time>2015-03-08T14:51:42Z</time>
      </trkpt>
      <trkpt lat="45.60102" lon="4.57385">
        <ele>740.2</ele>
        <time>2015-03-08T14:52:11Z</time>
      </trkpt>
      <trkpt lat="45.60116" lon="4.57419">
        <ele>748.8</ele>
        <time>2015-03-08T14:52:51Z</time>
      </trkpt>
      <trkpt lat="45.6012" lon="4.57442">
        <ele>755.2</ele>
        <time>2015-03-08T14:53:14Z</time>
      </trkpt>
      <trkpt lat="45.60124" lon="4.57455">
        <ele>754.7</ele>
        <time>2015-03-08T14:53:25Z</time>
      </trkpt>
      <trkpt lat="45.60134" lon="4.57485">
        <ele>756.6</ele>
        <time>2015-03-08T14:53:56Z</time>
      </trkpt>
      <trkpt lat="45.60145" lon="4.57508">
        <ele>756.3</ele>
        <time>2015-03-08T14:54:14Z</time>
      </trkpt>
      <trkpt lat="45.6015" lon="4.57522">
        <ele>759</ele>
        <time>2015-03-08T14:54:28Z</time>
      </trkpt>
      <trkpt lat="45.60155" lon="4.5753">
        <ele>759.5</ele>
        <time>2015-03-08T14:54:36Z</time>
      </trkpt>
      <trkpt lat="45.60159" lon="4.5754">
        <ele>761.5</ele>
        <time>2015-03-08T14:54:45Z</time>
      </trkpt>
      <trkpt lat="45.60163" lon="4.57545">
        <ele>762.8</ele>
        <time>2015-03-08T14:54:51Z</time>
      </trkpt>
      <trkpt lat="45.60171" lon="4.57559">
        <ele>765</ele>
        <time>2015-03-08T14:55:04Z</time>
      </trkpt>
      <trkpt lat="45.6018" lon="4.57572">
        <ele>764.5</ele>
        <time>2015-03-08T14:55:15Z</time>
      </trkpt>
      <trkpt lat="45.60192" lon="4.57593">
        <ele>770.3</ele>
        <time>2015-03-08T14:55:38Z</time>
      </trkpt>
      <trkpt lat="45.60201" lon="4.57598">
        <ele>768.9</ele>
        <time>2015-03-08T14:55:47Z</time>
      </trkpt>
      <trkpt lat="45.6022" lon="4.57615">
        <ele>768.1</ele>
        <time>2015-03-08T14:56:11Z</time>
      </trkpt>
      <trkpt lat="45.60226" lon="4.57618">
        <ele>769</ele>
        <time>2015-03-08T14:56:19Z</time>
      </trkpt>
      <trkpt lat="45.60237" lon="4.57631">
        <ele>769.7</ele>
        <time>2015-03-08T14:56:35Z</time>
      </trkpt>
      <trkpt lat="45.60242" lon="4.57638">
        <ele>769.9</ele>
        <time>2015-03-08T14:56:45Z</time>
      </trkpt>
      <trkpt lat="45.60243" lon="4.57657">
        <ele>771.7</ele>
        <time>2015-03-08T14:57:01Z</time>
      </trkpt>
      <trkpt lat="45.6025" lon="4.57704">
        <ele>770.8</ele>
        <time>2015-03-08T14:57:34Z</time>
      </trkpt>
      <trkpt lat="45.6025" lon="4.57719">
        <ele>772.1</ele>
        <time>2015-03-08T14:57:44Z</time>
      </trkpt>
      <trkpt lat="45.60251" lon="4.57726">
        <ele>768</ele>
        <time>2015-03-08T14:57:56Z</time>
      </trkpt>
      <trkpt lat="45.60254" lon="4.57728">
        <ele>762.2</ele>
        <time>2015-03-08T14:58:17Z</time>
      </trkpt>
      <trkpt lat="45.60252" lon="4.57729">
        <ele>765.2</ele>
        <time>2015-03-08T14:58:39Z</time>
      </trkpt>
      <trkpt lat="45.6025" lon="4.57736">
        <ele>771.4</ele>
        <time>2015-03-08T14:58:47Z</time>
      </trkpt>
      <trkpt lat="45.60242" lon="4.5778">
        <ele>774.8</ele>
        <time>2015-03-08T14:59:29Z</time>
      </trkpt>
      <trkpt lat="45.60244" lon="4.57782">
        <ele>775.9</ele>
        <time>2015-03-08T14:59:34Z</time>
      </trkpt>
      <trkpt lat="45.60248" lon="4.57805">
        <ele>778.8</ele>
        <time>2015-03-08T14:59:55Z</time>
      </trkpt>
      <trkpt lat="45.60259" lon="4.57835">
        <ele>774.5</ele>
        <time>2015-03-08T15:00:17Z</time>
      </trkpt>
      <trkpt lat="45.60263" lon="4.57854">
        <ele>782.9</ele>
        <time>2015-03-08T15:00:33Z</time>
      </trkpt>
      <trkpt lat="45.6028" lon="4.57895">
        <ele>784.1</ele>
        <time>2015-03-08T15:01:05Z</time>
      </trkpt>
      <trkpt lat="45.60284" lon="4.5791">
        <ele>781.8</ele>
        <time>2015-03-08T15:01:15Z</time>
      </trkpt>
      <trkpt lat="45.60289" lon="4.57913">
        <ele>779.3</ele>
        <time>2015-03-08T15:01:26Z</time>
      </trkpt>
      <trkpt lat="45.60296" lon="4.57929">
        <ele>781.2</ele>
        <time>2015-03-08T15:01:40Z</time>
      </trkpt>
      <trkpt lat="45.60303" lon="4.5795">
        <ele>780.7</ele>
        <time>2015-03-08T15:01:57Z</time>
      </trkpt>
      <trkpt lat="45.60319" lon="4.58023">
        <ele>783.6</ele>
        <time>2015-03-08T15:02:49Z</time>
      </trkpt>
      <trkpt lat="45.60325" lon="4.58037">
        <ele>782.4</ele>
        <time>2015-03-08T15:03:00Z</time>
      </trkpt>
      <trkpt lat="45.60334" lon="4.58075">
        <ele>786.1</ele>
        <time>2015-03-08T15:03:27Z</time>
      </trkpt>
      <trkpt lat="45.60357" lon="4.58146">
        <ele>787.8</ele>
        <time>2015-03-08T15:04:16Z</time>
      </trkpt>
      <trkpt lat="45.60363" lon="4.58178">
        <ele>785.6</ele>
        <time>2015-03-08T15:04:37Z</time>
      </trkpt>
      <trkpt lat="45.60369" lon="4.58198">
        <ele>782.9</ele>
        <time>2015-03-08T15:04:52Z</time>
      </trkpt>
      <trkpt lat="45.6038" lon="4.5825">
        <ele>787</ele>
        <time>2015-03-08T15:05:33Z</time>
      </trkpt>
      <trkpt lat="45.60389" lon="4.58284">
        <ele>783.3</ele>
        <time>2015-03-08T15:05:56Z</time>
      </trkpt>
      <trkpt lat="45.60417" lon="4.58345">
        <ele>786.8</ele>
        <time>2015-03-08T15:06:42Z</time>
      </trkpt>
      <trkpt lat="45.60421" lon="4.58367">
        <ele>787.8</ele>
        <time>2015-03-08T15:06:57Z</time>
      </trkpt>
      <trkpt lat="45.60438" lon="4.584">
        <ele>786.1</ele>
        <time>2015-03-08T15:07:30Z</time>
      </trkpt>
      <trkpt lat="45.60442" lon="4.58413">
        <ele>789.3</ele>
        <time>2015-03-08T15:07:39Z</time>
      </trkpt>
      <trkpt lat="45.60462" lon="4.58452">
        <ele>792.9</ele>
        <time>2015-03-08T15:08:10Z</time>
      </trkpt>
      <trkpt lat="45.60473" lon="4.5847">
        <ele>786</ele>
        <time>2015-03-08T15:08:25Z</time>
      </trkpt>
      <trkpt lat="45.60483" lon="4.58516">
        <ele>791.3</ele>
        <time>2015-03-08T15:08:59Z</time>
      </trkpt>
      <trkpt lat="45.60495" lon="4.58551">
        <ele>788.6</ele>
        <time>2015-03-08T15:09:23Z</time>
      </trkpt>
      <trkpt lat="45.60497" lon="4.58554">
        <ele>787.1</ele>
        <time>2015-03-08T15:09:32Z</time>
      </trkpt>
      <trkpt lat="45.60499" lon="4.58554">
        <ele>782.8</ele>
        <time>2015-03-08T15:11:07Z</time>
      </trkpt>
      <trkpt lat="45.60499" lon="4.5856">
        <ele>786.1</ele>
        <time>2015-03-08T15:11:51Z</time>
      </trkpt>
      <trkpt lat="45.605" lon="4.5856">
        <ele>782.6</ele>
        <time>2015-03-08T15:12:03Z</time>
      </trkpt>
      <trkpt lat="45.60507" lon="4.58583">
        <ele>784</ele>
        <time>2015-03-08T15:12:23Z</time>
      </trkpt>
      <trkpt lat="45.60515" lon="4.58618">
        <ele>788.8</ele>
        <time>2015-03-08T15:12:46Z</time>
      </trkpt>
      <trkpt lat="45.60525" lon="4.58647">
        <ele>789.3</ele>
        <time>2015-03-08T15:13:07Z</time>
      </trkpt>
      <trkpt lat="45.60539" lon="4.58672">
        <ele>795.6</ele>
        <time>2015-03-08T15:13:31Z</time>
      </trkpt>
      <trkpt lat="45.60548" lon="4.58685">
        <ele>796.7</ele>
        <time>2015-03-08T15:13:42Z</time>
      </trkpt>
      <trkpt lat="45.60559" lon="4.58695">
        <ele>795</ele>
        <time>2015-03-08T15:13:53Z</time>
      </trkpt>
      <trkpt lat="45.60571" lon="4.58704">
        <ele>795.2</ele>
        <time>2015-03-08T15:14:05Z</time>
      </trkpt>
      <trkpt lat="45.60607" lon="4.58742">
        <ele>795.6</ele>
        <time>2015-03-08T15:14:44Z</time>
      </trkpt>
      <trkpt lat="45.6063" lon="4.58761">
        <ele>799.5</ele>
        <time>2015-03-08T15:15:07Z</time>
      </trkpt>
      <trkpt lat="45.60651" lon="4.58786">
        <ele>799.3</ele>
        <time>2015-03-08T15:15:42Z</time>
      </trkpt>
      <trkpt lat="45.60656" lon="4.58794">
        <ele>800.3</ele>
        <time>2015-03-08T15:15:50Z</time>
      </trkpt>
      <trkpt lat="45.60661" lon="4.5881">
        <ele>798.8</ele>
        <time>2015-03-08T15:16:05Z</time>
      </trkpt>
      <trkpt lat="45.6066" lon="4.58811">
        <ele>794.9</ele>
        <time>2015-03-08T15:16:15Z</time>
      </trkpt>
      <trkpt lat="45.60661" lon="4.58812">
        <ele>788.7</ele>
        <time>2015-03-08T15:16:32Z</time>
      </trkpt>
      <trkpt lat="45.60665" lon="4.58817">
        <ele>789.2</ele>
        <time>2015-03-08T15:16:59Z</time>
      </trkpt>
      <trkpt lat="45.60684" lon="4.5887">
        <ele>785.9</ele>
        <time>2015-03-08T15:17:35Z</time>
      </trkpt>
      <trkpt lat="45.60705" lon="4.58914">
        <ele>780.5</ele>
        <time>2015-03-08T15:18:06Z</time>
      </trkpt>
      <trkpt lat="45.60715" lon="4.58926">
        <ele>779.3</ele>
        <time>2015-03-08T15:18:17Z</time>
      </trkpt>
      <trkpt lat="45.60742" lon="4.58955">
        <ele>776.6</ele>
        <time>2015-03-08T15:18:46Z</time>
      </trkpt>
      <trkpt lat="45.60762" lon="4.58974">
        <ele>775</ele>
        <time>2015-03-08T15:19:06Z</time>
      </trkpt>
      <trkpt lat="45.60775" lon="4.58985">
        <ele>774.9</ele>
        <time>2015-03-08T15:19:20Z</time>
      </trkpt>
      <trkpt lat="45.60778" lon="4.58989">
        <ele>774.9</ele>
        <time>2015-03-08T15:19:24Z</time>
      </trkpt>
      <trkpt lat="45.60778" lon="4.58992">
        <ele>775.1</ele>
        <time>2015-03-08T15:19:26Z</time>
      </trkpt>
      <trkpt lat="45.60777" lon="4.58996">
        <ele>774.8</ele>
        <time>2015-03-08T15:19:29Z</time>
      </trkpt>
      <trkpt lat="45.60771" lon="4.59">
        <ele>774.2</ele>
        <time>2015-03-08T15:19:35Z</time>
      </trkpt>
      <trkpt lat="45.60764" lon="4.59">
        <ele>774.7</ele>
        <time>2015-03-08T15:19:42Z</time>
      </trkpt>
      <trkpt lat="45.60758" lon="4.59001">
        <ele>775</ele>
        <time>2015-03-08T15:19:47Z</time>
      </trkpt>
      <trkpt lat="45.60732" lon="4.58998">
        <ele>776.1</ele>
        <time>2015-03-08T15:20:11Z</time>
      </trkpt>
      <trkpt lat="45.60694" lon="4.58985">
        <ele>777.4</ele>
        <time>2015-03-08T15:20:44Z</time>
      </trkpt>
      <trkpt lat="45.60687" lon="4.58985">
        <ele>777.1</ele>
        <time>2015-03-08T15:20:50Z</time>
      </trkpt>
      <trkpt lat="45.6066" lon="4.58978">
        <ele>776.6</ele>
        <time>2015-03-08T15:21:13Z</time>
      </trkpt>
      <trkpt lat="45.6063" lon="4.58974">
        <ele>777.2</ele>
        <time>2015-03-08T15:21:38Z</time>
      </trkpt>
      <trkpt lat="45.60612" lon="4.58968">
        <ele>778</ele>
        <time>2015-03-08T15:21:53Z</time>
      </trkpt>
      <trkpt lat="45.60581" lon="4.5895">
        <ele>777.8</ele>
        <time>2015-03-08T15:22:21Z</time>
      </trkpt>
      <trkpt lat="45.60575" lon="4.58948">
        <ele>776.7</ele>
        <time>2015-03-08T15:22:27Z</time>
      </trkpt>
      <trkpt lat="45.60558" lon="4.58939">
        <ele>774.3</ele>
        <time>2015-03-08T15:22:42Z</time>
      </trkpt>
      <trkpt lat="45.60551" lon="4.58938">
        <ele>772.9</ele>
        <time>2015-03-08T15:22:49Z</time>
      </trkpt>
      <trkpt lat="45.60534" lon="4.58938">
        <ele>772.1</ele>
        <time>2015-03-08T15:23:06Z</time>
      </trkpt>
      <trkpt lat="45.60519" lon="4.58932">
        <ele>770</ele>
        <time>2015-03-08T15:23:20Z</time>
      </trkpt>
      <trkpt lat="45.6051" lon="4.5893">
        <ele>768</ele>
        <time>2015-03-08T15:23:29Z</time>
      </trkpt>
      <trkpt lat="45.60499" lon="4.58933">
        <ele>766.4</ele>
        <time>2015-03-08T15:23:40Z</time>
      </trkpt>
      <trkpt lat="45.60473" lon="4.58943">
        <ele>764.6</ele>
        <time>2015-03-08T15:24:05Z</time>
      </trkpt>
      <trkpt lat="45.60425" lon="4.58948">
        <ele>760.3</ele>
        <time>2015-03-08T15:24:53Z</time>
      </trkpt>
      <trkpt lat="45.60421" lon="4.58947">
        <ele>759.3</ele>
        <time>2015-03-08T15:24:58Z</time>
      </trkpt>
      <trkpt lat="45.60413" lon="4.58949">
        <ele>756.4</ele>
        <time>2015-03-08T15:25:07Z</time>
      </trkpt>
      <trkpt lat="45.604" lon="4.58958">
        <ele>755.7</ele>
        <time>2015-03-08T15:25:25Z</time>
      </trkpt>
      <trkpt lat="45.60389" lon="4.58961">
        <ele>754.9</ele>
        <time>2015-03-08T15:25:36Z</time>
      </trkpt>
      <trkpt lat="45.60374" lon="4.58963">
        <ele>752.9</ele>
        <time>2015-03-08T15:25:52Z</time>
      </trkpt>
      <trkpt lat="45.60359" lon="4.58961">
        <ele>750.8</ele>
        <time>2015-03-08T15:26:07Z</time>
      </trkpt>
      <trkpt lat="45.60347" lon="4.58962">
        <ele>750.2</ele>
        <time>2015-03-08T15:26:19Z</time>
      </trkpt>
      <trkpt lat="45.60323" lon="4.58955">
        <ele>745.7</ele>
        <time>2015-03-08T15:26:49Z</time>
      </trkpt>
      <trkpt lat="45.60299" lon="4.58954">
        <ele>751.5</ele>
        <time>2015-03-08T15:27:19Z</time>
      </trkpt>
      <trkpt lat="45.60281" lon="4.58943">
        <ele>743.4</ele>
        <time>2015-03-08T15:27:43Z</time>
      </trkpt>
      <trkpt lat="45.60274" lon="4.58944">
        <ele>737.8</ele>
        <time>2015-03-08T15:27:50Z</time>
      </trkpt>
      <trkpt lat="45.60266" lon="4.58937">
        <ele>731.8</ele>
        <time>2015-03-08T15:28:01Z</time>
      </trkpt>
      <trkpt lat="45.60258" lon="4.58935">
        <ele>731.6</ele>
        <time>2015-03-08T15:28:11Z</time>
      </trkpt>
      <trkpt lat="45.60242" lon="4.58925">
        <ele>741.8</ele>
        <time>2015-03-08T15:28:36Z</time>
      </trkpt>
      <trkpt lat="45.60235" lon="4.58927">
        <ele>746.5</ele>
        <time>2015-03-08T15:28:43Z</time>
      </trkpt>
      <trkpt lat="45.60227" lon="4.58926">
        <ele>744</ele>
        <time>2015-03-08T15:28:47Z</time>
      </trkpt>
      <trkpt lat="45.60225" lon="4.58924">
        <ele>742.3</ele>
        <time>2015-03-08T15:28:50Z</time>
      </trkpt>
      <trkpt lat="45.6022" lon="4.58925">
        <ele>737.8</ele>
        <time>2015-03-08T15:28:54Z</time>
      </trkpt>
      <trkpt lat="45.60221" lon="4.58929">
        <ele>723.7</ele>
        <time>2015-03-08T15:29:21Z</time>
      </trkpt>
      <trkpt lat="45.60219" lon="4.58929">
        <ele>724.3</ele>
        <time>2015-03-08T15:29:33Z</time>
      </trkpt>
      <trkpt lat="45.6021" lon="4.58918">
        <ele>729.5</ele>
        <time>2015-03-08T15:29:47Z</time>
      </trkpt>
      <trkpt lat="45.60205" lon="4.58914">
        <ele>730.1</ele>
        <time>2015-03-08T15:29:54Z</time>
      </trkpt>
      <trkpt lat="45.60182" lon="4.58906">
        <ele>732.6</ele>
        <time>2015-03-08T15:30:18Z</time>
      </trkpt>
      <trkpt lat="45.60171" lon="4.58907">
        <ele>732.4</ele>
        <time>2015-03-08T15:30:26Z</time>
      </trkpt>
      <trkpt lat="45.60158" lon="4.58913">
        <ele>738.2</ele>
        <time>2015-03-08T15:30:38Z</time>
      </trkpt>
      <trkpt lat="45.60152" lon="4.5891">
        <ele>733.3</ele>
        <time>2015-03-08T15:30:42Z</time>
      </trkpt>
      <trkpt lat="45.60149" lon="4.58912">
        <ele>735.6</ele>
        <time>2015-03-08T15:30:45Z</time>
      </trkpt>
      <trkpt lat="45.60145" lon="4.58911">
        <ele>733.5</ele>
        <time>2015-03-08T15:30:47Z</time>
      </trkpt>
      <trkpt lat="45.60143" lon="4.58912">
        <ele>734.2</ele>
        <time>2015-03-08T15:30:48Z</time>
      </trkpt>
      <trkpt lat="45.60137" lon="4.58911">
        <ele>730.7</ele>
        <time>2015-03-08T15:30:51Z</time>
      </trkpt>
      <trkpt lat="45.60133" lon="4.58912">
        <ele>730.6</ele>
        <time>2015-03-08T15:30:55Z</time>
      </trkpt>
      <trkpt lat="45.60135" lon="4.58915">
        <ele>733.3</ele>
        <time>2015-03-08T15:30:57Z</time>
      </trkpt>
      <trkpt lat="45.60129" lon="4.58924">
        <ele>728.9</ele>
        <time>2015-03-08T15:31:06Z</time>
      </trkpt>
      <trkpt lat="45.60114" lon="4.58929">
        <ele>728.8</ele>
        <time>2015-03-08T15:31:21Z</time>
      </trkpt>
      <trkpt lat="45.60112" lon="4.58928">
        <ele>728.2</ele>
        <time>2015-03-08T15:31:23Z</time>
      </trkpt>
      <trkpt lat="45.6011" lon="4.58931">
        <ele>735.4</ele>
        <time>2015-03-08T15:31:28Z</time>
      </trkpt>
      <trkpt lat="45.60109" lon="4.5893">
        <ele>739.5</ele>
        <time>2015-03-08T15:31:31Z</time>
      </trkpt>
      <trkpt lat="45.60109" lon="4.58933">
        <ele>746.8</ele>
        <time>2015-03-08T15:31:36Z</time>
      </trkpt>
      <trkpt lat="45.60101" lon="4.58934">
        <ele>750.1</ele>
        <time>2015-03-08T15:31:41Z</time>
      </trkpt>
      <trkpt lat="45.60098" lon="4.58929">
        <ele>749.5</ele>
        <time>2015-03-08T15:31:44Z</time>
      </trkpt>
      <trkpt lat="45.60092" lon="4.58931">
        <ele>751.3</ele>
        <time>2015-03-08T15:31:49Z</time>
      </trkpt>
      <trkpt lat="45.60085" lon="4.58924">
        <ele>723.6</ele>
        <time>2015-03-08T15:32:05Z</time>
      </trkpt>
      <trkpt lat="45.60082" lon="4.58928">
        <ele>714.1</ele>
        <time>2015-03-08T15:32:08Z</time>
      </trkpt>
      <trkpt lat="45.60087" lon="4.58936">
        <ele>710.1</ele>
        <time>2015-03-08T15:32:12Z</time>
      </trkpt>
      <trkpt lat="45.60086" lon="4.58944">
        <ele>710.2</ele>
        <time>2015-03-08T15:32:14Z</time>
      </trkpt>
      <trkpt lat="45.60082" lon="4.58942">
        <ele>707.7</ele>
        <time>2015-03-08T15:32:18Z</time>
      </trkpt>
      <trkpt lat="45.60083" lon="4.58941">
        <ele>710.1</ele>
        <time>2015-03-08T15:32:21Z</time>
      </trkpt>
      <trkpt lat="45.6008" lon="4.58939">
        <ele>701.8</ele>
        <time>2015-03-08T15:32:22Z</time>
      </trkpt>
      <trkpt lat="45.60075" lon="4.5893">
        <ele>706.6</ele>
        <time>2015-03-08T15:32:25Z</time>
      </trkpt>
      <trkpt lat="45.60076" lon="4.58926">
        <ele>707.7</ele>
        <time>2015-03-08T15:32:26Z</time>
      </trkpt>
    </trkseg>
  </trk>
</gpx>